<?xml version="1.0" encoding="UTF-8"?>
<gpx xmlns="http://www.topografix.com/GPX/1/1" xmlns:xsi="http://www.w3.org/2001/XMLSchema-instance" version="1.1" xsi:schemaLocation="http://www.topografix.com/GPX/1/1 http://www.topografix.com/GPX/1/1/gpx.xsd">
  <metadata>
    <name>Aloha Tri Mondseeland Sprint</name>
  </metadata>
  <trk>
    <name>Aloha Tri Mondseeland Sprint</name>
    <trkseg>
      <trkpt lat="47.852545" lon="13.350188">
        <ele>485.469302</ele>
        <time>2024-09-08T08:30:00.000Z</time>
      </trkpt>
      <trkpt lat="47.852654" lon="13.350669">
        <ele>485.469308</ele>
        <time>2024-09-08T08:30:04.000Z</time>
      </trkpt>
      <trkpt lat="47.85284" lon="13.351679">
        <ele>485.551846</ele>
        <time>2024-09-08T08:30:12.000Z</time>
      </trkpt>
      <trkpt lat="47.852897" lon="13.352085">
        <ele>485.720651</ele>
        <time>2024-09-08T08:30:15.000Z</time>
      </trkpt>
      <trkpt lat="47.852929" lon="13.352324">
        <ele>485.826825</ele>
        <time>2024-09-08T08:30:17.000Z</time>
      </trkpt>
      <trkpt lat="47.852963" lon="13.352682">
        <ele>485.968349</ele>
        <time>2024-09-08T08:30:20.000Z</time>
      </trkpt>
      <trkpt lat="47.85298" lon="13.35304">
        <ele>486.117378</ele>
        <time>2024-09-08T08:30:23.000Z</time>
      </trkpt>
      <trkpt lat="47.852988" lon="13.35314">
        <ele>486.159686</ele>
        <time>2024-09-08T08:30:24.000Z</time>
      </trkpt>
      <trkpt lat="47.852993" lon="13.353174">
        <ele>486.175666</ele>
        <time>2024-09-08T08:30:24.000Z</time>
      </trkpt>
      <trkpt lat="47.853011" lon="13.353867">
        <ele>486.456533</ele>
        <time>2024-09-08T08:30:29.000Z</time>
      </trkpt>
      <trkpt lat="47.852994" lon="13.354607">
        <ele>486.850495</ele>
        <time>2024-09-08T08:30:35.000Z</time>
      </trkpt>
      <trkpt lat="47.852948" lon="13.355214">
        <ele>487.233729</ele>
        <time>2024-09-08T08:30:40.000Z</time>
      </trkpt>
      <trkpt lat="47.852882" lon="13.355847">
        <ele>487.623418</ele>
        <time>2024-09-08T08:30:45.000Z</time>
      </trkpt>
      <trkpt lat="47.852798" lon="13.356352">
        <ele>487.939156</ele>
        <time>2024-09-08T08:30:49.000Z</time>
      </trkpt>
      <trkpt lat="47.85271" lon="13.356892">
        <ele>488.255187</ele>
        <time>2024-09-08T08:30:53.000Z</time>
      </trkpt>
      <trkpt lat="47.852616" lon="13.35719">
        <ele>488.386241</ele>
        <time>2024-09-08T08:30:55.000Z</time>
      </trkpt>
      <trkpt lat="47.852578" lon="13.357302">
        <ele>488.435657</ele>
        <time>2024-09-08T08:30:56.000Z</time>
      </trkpt>
      <trkpt lat="47.852501" lon="13.357494">
        <ele>488.52209</ele>
        <time>2024-09-08T08:30:58.000Z</time>
      </trkpt>
      <trkpt lat="47.852205" lon="13.358028">
        <ele>488.79322</ele>
        <time>2024-09-08T08:31:03.000Z</time>
      </trkpt>
      <trkpt lat="47.85213" lon="13.358156">
        <ele>488.8622</ele>
        <time>2024-09-08T08:31:04.000Z</time>
      </trkpt>
      <trkpt lat="47.851887" lon="13.358485">
        <ele>489.049242</ele>
        <time>2024-09-08T08:31:08.000Z</time>
      </trkpt>
      <trkpt lat="47.851657" lon="13.358824">
        <ele>489.239192</ele>
        <time>2024-09-08T08:31:12.000Z</time>
      </trkpt>
      <trkpt lat="47.851495" lon="13.359099">
        <ele>489.204997</ele>
        <time>2024-09-08T08:31:15.000Z</time>
      </trkpt>
      <trkpt lat="47.851362" lon="13.359395">
        <ele>489.140303</ele>
        <time>2024-09-08T08:31:18.000Z</time>
      </trkpt>
      <trkpt lat="47.851318" lon="13.3595">
        <ele>489.117495</ele>
        <time>2024-09-08T08:31:19.000Z</time>
      </trkpt>
      <trkpt lat="47.851214" lon="13.359763">
        <ele>489.061928</ele>
        <time>2024-09-08T08:31:21.000Z</time>
      </trkpt>
      <trkpt lat="47.851074" lon="13.360136">
        <ele>488.985047</ele>
        <time>2024-09-08T08:31:24.000Z</time>
      </trkpt>
      <trkpt lat="47.851031" lon="13.360241">
        <ele>488.963945</ele>
        <time>2024-09-08T08:31:25.000Z</time>
      </trkpt>
      <trkpt lat="47.850998" lon="13.360343">
        <ele>488.94184</ele>
        <time>2024-09-08T08:31:26.000Z</time>
      </trkpt>
      <trkpt lat="47.850925" lon="13.360519">
        <ele>488.907952</ele>
        <time>2024-09-08T08:31:28.000Z</time>
      </trkpt>
      <trkpt lat="47.85086" lon="13.360667">
        <ele>488.875769</ele>
        <time>2024-09-08T08:31:29.000Z</time>
      </trkpt>
      <trkpt lat="47.850466" lon="13.361196">
        <ele>488.925633</ele>
        <time>2024-09-08T08:31:35.000Z</time>
      </trkpt>
      <trkpt lat="47.850134" lon="13.361418">
        <ele>489.228389</ele>
        <time>2024-09-08T08:31:39.000Z</time>
      </trkpt>
      <trkpt lat="47.849957" lon="13.361517">
        <ele>489.385904</ele>
        <time>2024-09-08T08:31:41.000Z</time>
      </trkpt>
      <trkpt lat="47.849783" lon="13.361655">
        <ele>489.548859</ele>
        <time>2024-09-08T08:31:43.000Z</time>
      </trkpt>
      <trkpt lat="47.849596" lon="13.361843">
        <ele>489.732002</ele>
        <time>2024-09-08T08:31:46.000Z</time>
      </trkpt>
      <trkpt lat="47.849434" lon="13.362095">
        <ele>489.934405</ele>
        <time>2024-09-08T08:31:49.000Z</time>
      </trkpt>
      <trkpt lat="47.849219" lon="13.362791">
        <ele>490.358572</ele>
        <time>2024-09-08T08:31:55.000Z</time>
      </trkpt>
      <trkpt lat="47.849177" lon="13.363062">
        <ele>490.508007</ele>
        <time>2024-09-08T08:31:57.000Z</time>
      </trkpt>
      <trkpt lat="47.849159" lon="13.363212">
        <ele>490.583086</ele>
        <time>2024-09-08T08:31:58.000Z</time>
      </trkpt>
      <trkpt lat="47.849136" lon="13.363308">
        <ele>490.64208</ele>
        <time>2024-09-08T08:31:59.000Z</time>
      </trkpt>
      <trkpt lat="47.849095" lon="13.363506">
        <ele>490.748472</ele>
        <time>2024-09-08T08:32:01.000Z</time>
      </trkpt>
      <trkpt lat="47.848794" lon="13.364152">
        <ele>491.161735</ele>
        <time>2024-09-08T08:32:07.000Z</time>
      </trkpt>
      <trkpt lat="47.848371" lon="13.364936">
        <ele>491.693733</ele>
        <time>2024-09-08T08:32:15.000Z</time>
      </trkpt>
      <trkpt lat="47.848257" lon="13.365276">
        <ele>491.389706</ele>
        <time>2024-09-08T08:32:18.000Z</time>
      </trkpt>
      <trkpt lat="47.848132" lon="13.365932">
        <ele>490.821454</ele>
        <time>2024-09-08T08:32:23.000Z</time>
      </trkpt>
      <trkpt lat="47.847897" lon="13.367781">
        <ele>489.347873</ele>
        <time>2024-09-08T08:32:37.000Z</time>
      </trkpt>
      <trkpt lat="47.847855" lon="13.368045">
        <ele>489.23131</ele>
        <time>2024-09-08T08:32:39.000Z</time>
      </trkpt>
      <trkpt lat="47.847738" lon="13.368423">
        <ele>489.056687</ele>
        <time>2024-09-08T08:32:42.000Z</time>
      </trkpt>
      <trkpt lat="47.84725" lon="13.369716">
        <ele>488.431974</ele>
        <time>2024-09-08T08:32:53.000Z</time>
      </trkpt>
      <trkpt lat="47.847038" lon="13.370169">
        <ele>488.26234</ele>
        <time>2024-09-08T08:32:57.000Z</time>
      </trkpt>
      <trkpt lat="47.846992" lon="13.370281">
        <ele>488.235463</ele>
        <time>2024-09-08T08:32:58.000Z</time>
      </trkpt>
      <trkpt lat="47.846899" lon="13.370433">
        <ele>488.191125</ele>
        <time>2024-09-08T08:33:00.000Z</time>
      </trkpt>
      <trkpt lat="47.846848" lon="13.370546">
        <ele>488.164663</ele>
        <time>2024-09-08T08:33:01.000Z</time>
      </trkpt>
      <trkpt lat="47.846748" lon="13.370754">
        <ele>488.108765</ele>
        <time>2024-09-08T08:33:03.000Z</time>
      </trkpt>
      <trkpt lat="47.8462" lon="13.371543">
        <ele>487.869381</ele>
        <time>2024-09-08T08:33:11.000Z</time>
      </trkpt>
      <trkpt lat="47.846085" lon="13.371738">
        <ele>487.814128</ele>
        <time>2024-09-08T08:33:13.000Z</time>
      </trkpt>
      <trkpt lat="47.845973" lon="13.371915">
        <ele>487.761916</ele>
        <time>2024-09-08T08:33:15.000Z</time>
      </trkpt>
      <trkpt lat="47.845902" lon="13.372028">
        <ele>487.867124</ele>
        <time>2024-09-08T08:33:16.000Z</time>
      </trkpt>
      <trkpt lat="47.8459" lon="13.372063">
        <ele>487.896317</ele>
        <time>2024-09-08T08:33:16.000Z</time>
      </trkpt>
      <trkpt lat="47.845829" lon="13.372211">
        <ele>488.022361</ele>
        <time>2024-09-08T08:33:17.000Z</time>
      </trkpt>
      <trkpt lat="47.845673" lon="13.372789">
        <ele>488.490999</ele>
        <time>2024-09-08T08:33:22.000Z</time>
      </trkpt>
      <trkpt lat="47.84567" lon="13.372868">
        <ele>488.548393</ele>
        <time>2024-09-08T08:33:23.000Z</time>
      </trkpt>
      <trkpt lat="47.845629" lon="13.373267">
        <ele>488.852407</ele>
        <time>2024-09-08T08:33:26.000Z</time>
      </trkpt>
      <trkpt lat="47.845554" lon="13.373691">
        <ele>489.170821</ele>
        <time>2024-09-08T08:33:29.000Z</time>
      </trkpt>
      <trkpt lat="47.845506" lon="13.373897">
        <ele>489.345221</ele>
        <time>2024-09-08T08:33:31.000Z</time>
      </trkpt>
      <trkpt lat="47.845428" lon="13.37416">
        <ele>489.550259</ele>
        <time>2024-09-08T08:33:33.000Z</time>
      </trkpt>
      <trkpt lat="47.844722" lon="13.376055">
        <ele>491.921924</ele>
        <time>2024-09-08T08:33:49.000Z</time>
      </trkpt>
      <trkpt lat="47.844134" lon="13.37733">
        <ele>492.336391</ele>
        <time>2024-09-08T08:34:01.000Z</time>
      </trkpt>
      <trkpt lat="47.844008" lon="13.377544">
        <ele>492.169216</ele>
        <time>2024-09-08T08:34:03.000Z</time>
      </trkpt>
      <trkpt lat="47.843741" lon="13.377934">
        <ele>491.826776</ele>
        <time>2024-09-08T08:34:07.000Z</time>
      </trkpt>
      <trkpt lat="47.843594" lon="13.378143">
        <ele>491.637584</ele>
        <time>2024-09-08T08:34:09.000Z</time>
      </trkpt>
      <trkpt lat="47.843474" lon="13.37836">
        <ele>491.47177</ele>
        <time>2024-09-08T08:34:11.000Z</time>
      </trkpt>
      <trkpt lat="47.843312" lon="13.37864">
        <ele>491.244502</ele>
        <time>2024-09-08T08:34:14.000Z</time>
      </trkpt>
      <trkpt lat="47.843148" lon="13.378969">
        <ele>490.970641</ele>
        <time>2024-09-08T08:34:17.000Z</time>
      </trkpt>
      <trkpt lat="47.842896" lon="13.379523">
        <ele>490.5013</ele>
        <time>2024-09-08T08:34:22.000Z</time>
      </trkpt>
      <trkpt lat="47.842724" lon="13.37986">
        <ele>490.20321</ele>
        <time>2024-09-08T08:34:25.000Z</time>
      </trkpt>
      <trkpt lat="47.842562" lon="13.38028">
        <ele>489.867192</ele>
        <time>2024-09-08T08:34:29.000Z</time>
      </trkpt>
      <trkpt lat="47.842429" lon="13.380624">
        <ele>489.584024</ele>
        <time>2024-09-08T08:34:32.000Z</time>
      </trkpt>
      <trkpt lat="47.841979" lon="13.382466">
        <ele>489.994574</ele>
        <time>2024-09-08T08:34:47.000Z</time>
      </trkpt>
      <trkpt lat="47.841802" lon="13.382954">
        <ele>490.236314</ele>
        <time>2024-09-08T08:34:51.000Z</time>
      </trkpt>
      <trkpt lat="47.841713" lon="13.383144">
        <ele>490.351641</ele>
        <time>2024-09-08T08:34:53.000Z</time>
      </trkpt>
      <trkpt lat="47.841617" lon="13.383295">
        <ele>490.442293</ele>
        <time>2024-09-08T08:34:55.000Z</time>
      </trkpt>
      <trkpt lat="47.841365" lon="13.383654">
        <ele>490.537612</ele>
        <time>2024-09-08T08:34:59.000Z</time>
      </trkpt>
      <trkpt lat="47.84123" lon="13.383825">
        <ele>490.555272</ele>
        <time>2024-09-08T08:35:01.000Z</time>
      </trkpt>
      <trkpt lat="47.841145" lon="13.383913">
        <ele>490.564914</ele>
        <time>2024-09-08T08:35:02.000Z</time>
      </trkpt>
      <trkpt lat="47.840617" lon="13.384409">
        <ele>490.627492</ele>
        <time>2024-09-08T08:35:09.000Z</time>
      </trkpt>
      <trkpt lat="47.839638" lon="13.384948">
        <ele>489.99922</ele>
        <time>2024-09-08T08:35:21.000Z</time>
      </trkpt>
      <trkpt lat="47.838987" lon="13.385637">
        <ele>488.544951</ele>
        <time>2024-09-08T08:35:30.000Z</time>
      </trkpt>
      <trkpt lat="47.838403" lon="13.38605">
        <ele>487.421367</ele>
        <time>2024-09-08T08:35:37.000Z</time>
      </trkpt>
      <trkpt lat="47.838258" lon="13.386134">
        <ele>487.2118</ele>
        <time>2024-09-08T08:35:39.000Z</time>
      </trkpt>
      <trkpt lat="47.838218" lon="13.386147">
        <ele>487.175575</ele>
        <time>2024-09-08T08:35:39.000Z</time>
      </trkpt>
      <trkpt lat="47.838176" lon="13.386201">
        <ele>487.096004</ele>
        <time>2024-09-08T08:35:40.000Z</time>
      </trkpt>
      <trkpt lat="47.838094" lon="13.386254">
        <ele>486.983008</ele>
        <time>2024-09-08T08:35:41.000Z</time>
      </trkpt>
      <trkpt lat="47.837692" lon="13.386687">
        <ele>486.376971</ele>
        <time>2024-09-08T08:35:47.000Z</time>
      </trkpt>
      <trkpt lat="47.837391" lon="13.387236">
        <ele>485.766623</ele>
        <time>2024-09-08T08:35:52.000Z</time>
      </trkpt>
      <trkpt lat="47.837312" lon="13.387431">
        <ele>485.571576</ele>
        <time>2024-09-08T08:35:54.000Z</time>
      </trkpt>
      <trkpt lat="47.837157" lon="13.387872">
        <ele>485.209987</ele>
        <time>2024-09-08T08:35:58.000Z</time>
      </trkpt>
      <trkpt lat="47.837063" lon="13.388122">
        <ele>485.238513</ele>
        <time>2024-09-08T08:36:00.000Z</time>
      </trkpt>
      <trkpt lat="47.836976" lon="13.388346">
        <ele>485.263671</ele>
        <time>2024-09-08T08:36:02.000Z</time>
      </trkpt>
      <trkpt lat="47.836776" lon="13.388774">
        <ele>485.316346</ele>
        <time>2024-09-08T08:36:06.000Z</time>
      </trkpt>
      <trkpt lat="47.836672" lon="13.388882">
        <ele>485.334859</ele>
        <time>2024-09-08T08:36:07.000Z</time>
      </trkpt>
      <trkpt lat="47.836584" lon="13.389002">
        <ele>485.354031</ele>
        <time>2024-09-08T08:36:08.000Z</time>
      </trkpt>
      <trkpt lat="47.836374" lon="13.38921">
        <ele>485.389931</ele>
        <time>2024-09-08T08:36:11.000Z</time>
      </trkpt>
      <trkpt lat="47.836042" lon="13.389536">
        <ele>485.449146</ele>
        <time>2024-09-08T08:36:15.000Z</time>
      </trkpt>
      <trkpt lat="47.835949" lon="13.389617">
        <ele>485.465256</ele>
        <time>2024-09-08T08:36:16.000Z</time>
      </trkpt>
      <trkpt lat="47.835924" lon="13.389678">
        <ele>485.470631</ele>
        <time>2024-09-08T08:36:17.000Z</time>
      </trkpt>
      <trkpt lat="47.83584" lon="13.389773">
        <ele>485.424943</ele>
        <time>2024-09-08T08:36:18.000Z</time>
      </trkpt>
      <trkpt lat="47.835544" lon="13.390313">
        <ele>485.228996</ele>
        <time>2024-09-08T08:36:23.000Z</time>
      </trkpt>
      <trkpt lat="47.835362" lon="13.390749">
        <ele>485.083414</ele>
        <time>2024-09-08T08:36:27.000Z</time>
      </trkpt>
      <trkpt lat="47.835222" lon="13.391076">
        <ele>484.972032</ele>
        <time>2024-09-08T08:36:30.000Z</time>
      </trkpt>
      <trkpt lat="47.835082" lon="13.391416">
        <ele>484.856914</ele>
        <time>2024-09-08T08:36:33.000Z</time>
      </trkpt>
      <trkpt lat="47.834877" lon="13.391879">
        <ele>484.705109</ele>
        <time>2024-09-08T08:36:37.000Z</time>
      </trkpt>
      <trkpt lat="47.83485" lon="13.391948">
        <ele>484.691915</ele>
        <time>2024-09-08T08:36:38.000Z</time>
      </trkpt>
      <trkpt lat="47.834733" lon="13.392152">
        <ele>484.652689</ele>
        <time>2024-09-08T08:36:40.000Z</time>
      </trkpt>
      <trkpt lat="47.834499" lon="13.39255">
        <ele>484.570346</ele>
        <time>2024-09-08T08:36:44.000Z</time>
      </trkpt>
      <trkpt lat="47.834337" lon="13.392777">
        <ele>484.519798</ele>
        <time>2024-09-08T08:36:46.000Z</time>
      </trkpt>
      <trkpt lat="47.83419" lon="13.39298">
        <ele>484.471802</ele>
        <time>2024-09-08T08:36:48.000Z</time>
      </trkpt>
      <trkpt lat="47.833664" lon="13.393507">
        <ele>484.327458</ele>
        <time>2024-09-08T08:36:55.000Z</time>
      </trkpt>
      <trkpt lat="47.833426" lon="13.393686">
        <ele>484.33442</ele>
        <time>2024-09-08T08:36:58.000Z</time>
      </trkpt>
      <trkpt lat="47.833199" lon="13.393878">
        <ele>484.414964</ele>
        <time>2024-09-08T08:37:01.000Z</time>
      </trkpt>
      <trkpt lat="47.83285" lon="13.394187">
        <ele>484.533192</ele>
        <time>2024-09-08T08:37:06.000Z</time>
      </trkpt>
      <trkpt lat="47.832815" lon="13.394228">
        <ele>484.547611</ele>
        <time>2024-09-08T08:37:06.000Z</time>
      </trkpt>
      <trkpt lat="47.832792" lon="13.394269">
        <ele>484.560832</ele>
        <time>2024-09-08T08:37:06.000Z</time>
      </trkpt>
      <trkpt lat="47.83274" lon="13.3943">
        <ele>484.575478</ele>
        <time>2024-09-08T08:37:07.000Z</time>
      </trkpt>
      <trkpt lat="47.832662" lon="13.394383">
        <ele>484.604281</ele>
        <time>2024-09-08T08:37:08.000Z</time>
      </trkpt>
      <trkpt lat="47.832653" lon="13.394402">
        <ele>484.611599</ele>
        <time>2024-09-08T08:37:08.000Z</time>
      </trkpt>
      <trkpt lat="47.832475" lon="13.394604">
        <ele>484.674993</ele>
        <time>2024-09-08T08:37:10.000Z</time>
      </trkpt>
      <trkpt lat="47.832164" lon="13.395019">
        <ele>484.799184</ele>
        <time>2024-09-08T08:37:15.000Z</time>
      </trkpt>
      <trkpt lat="47.831996" lon="13.395291">
        <ele>484.858682</ele>
        <time>2024-09-08T08:37:18.000Z</time>
      </trkpt>
      <trkpt lat="47.831787" lon="13.395597">
        <ele>484.912223</ele>
        <time>2024-09-08T08:37:21.000Z</time>
      </trkpt>
      <trkpt lat="47.831449" lon="13.396059">
        <ele>484.996036</ele>
        <time>2024-09-08T08:37:26.000Z</time>
      </trkpt>
      <trkpt lat="47.831252" lon="13.396258">
        <ele>485.039598</ele>
        <time>2024-09-08T08:37:29.000Z</time>
      </trkpt>
      <trkpt lat="47.831121" lon="13.396402">
        <ele>485.070239</ele>
        <time>2024-09-08T08:37:31.000Z</time>
      </trkpt>
      <trkpt lat="47.831042" lon="13.396459">
        <ele>485.083287</ele>
        <time>2024-09-08T08:37:32.000Z</time>
      </trkpt>
      <trkpt lat="47.830979" lon="13.396518">
        <ele>485.099612</ele>
        <time>2024-09-08T08:37:33.000Z</time>
      </trkpt>
      <trkpt lat="47.830841" lon="13.396626">
        <ele>485.126506</ele>
        <time>2024-09-08T08:37:35.000Z</time>
      </trkpt>
      <trkpt lat="47.830528" lon="13.396841">
        <ele>485.269031</ele>
        <time>2024-09-08T08:37:39.000Z</time>
      </trkpt>
      <trkpt lat="47.830434" lon="13.396909">
        <ele>485.339849</ele>
        <time>2024-09-08T08:37:40.000Z</time>
      </trkpt>
      <trkpt lat="47.829954" lon="13.397219">
        <ele>485.691672</ele>
        <time>2024-09-08T08:37:46.000Z</time>
      </trkpt>
      <trkpt lat="47.829566" lon="13.397466">
        <ele>485.984281</ele>
        <time>2024-09-08T08:37:51.000Z</time>
      </trkpt>
      <trkpt lat="47.82866" lon="13.398148">
        <ele>487.317405</ele>
        <time>2024-09-08T08:38:02.000Z</time>
      </trkpt>
      <trkpt lat="47.828159" lon="13.398574">
        <ele>488.54622</ele>
        <time>2024-09-08T08:38:08.000Z</time>
      </trkpt>
      <trkpt lat="47.827905" lon="13.39876">
        <ele>489.130589</ele>
        <time>2024-09-08T08:38:11.000Z</time>
      </trkpt>
      <trkpt lat="47.827682" lon="13.398921">
        <ele>489.683296</ele>
        <time>2024-09-08T08:38:14.000Z</time>
      </trkpt>
      <trkpt lat="47.827044" lon="13.399279">
        <ele>492.050863</ele>
        <time>2024-09-08T08:38:22.000Z</time>
      </trkpt>
      <trkpt lat="47.826875" lon="13.399347">
        <ele>492.772487</ele>
        <time>2024-09-08T08:38:24.000Z</time>
      </trkpt>
      <trkpt lat="47.826778" lon="13.399392">
        <ele>493.254315</ele>
        <time>2024-09-08T08:38:25.000Z</time>
      </trkpt>
      <trkpt lat="47.82665" lon="13.399416">
        <ele>493.818599</ele>
        <time>2024-09-08T08:38:26.000Z</time>
      </trkpt>
      <trkpt lat="47.826375" lon="13.399487">
        <ele>494.962882</ele>
        <time>2024-09-08T08:38:29.000Z</time>
      </trkpt>
      <trkpt lat="47.826085" lon="13.399541">
        <ele>496.215558</ele>
        <time>2024-09-08T08:38:32.000Z</time>
      </trkpt>
      <trkpt lat="47.825718" lon="13.399547">
        <ele>497.837021</ele>
        <time>2024-09-08T08:38:36.000Z</time>
      </trkpt>
      <trkpt lat="47.825474" lon="13.399551">
        <ele>499.597856</ele>
        <time>2024-09-08T08:38:39.000Z</time>
      </trkpt>
      <trkpt lat="47.825112" lon="13.399545">
        <ele>502.748936</ele>
        <time>2024-09-08T08:38:43.000Z</time>
      </trkpt>
      <trkpt lat="47.824914" lon="13.39951">
        <ele>504.394907</ele>
        <time>2024-09-08T08:38:45.000Z</time>
      </trkpt>
      <trkpt lat="47.824644" lon="13.399471">
        <ele>506.741988</ele>
        <time>2024-09-08T08:38:48.000Z</time>
      </trkpt>
      <trkpt lat="47.824493" lon="13.399443">
        <ele>507.915589</ele>
        <time>2024-09-08T08:38:50.000Z</time>
      </trkpt>
      <trkpt lat="47.824367" lon="13.399403">
        <ele>508.974391</ele>
        <time>2024-09-08T08:38:51.000Z</time>
      </trkpt>
      <trkpt lat="47.824205" lon="13.399357">
        <ele>510.361685</ele>
        <time>2024-09-08T08:38:53.000Z</time>
      </trkpt>
      <trkpt lat="47.823523" lon="13.399055">
        <ele>515.284776</ele>
        <time>2024-09-08T08:39:01.000Z</time>
      </trkpt>
      <trkpt lat="47.822889" lon="13.39859">
        <ele>519.132265</ele>
        <time>2024-09-08T08:39:09.000Z</time>
      </trkpt>
      <trkpt lat="47.822298" lon="13.398031">
        <ele>522.921435</ele>
        <time>2024-09-08T08:39:17.000Z</time>
      </trkpt>
      <trkpt lat="47.821515" lon="13.397041">
        <ele>522.470991</ele>
        <time>2024-09-08T08:39:28.000Z</time>
      </trkpt>
      <trkpt lat="47.821076" lon="13.396699">
        <ele>522.254845</ele>
        <time>2024-09-08T08:39:34.000Z</time>
      </trkpt>
      <trkpt lat="47.820695" lon="13.396595">
        <ele>521.92987</ele>
        <time>2024-09-08T08:39:38.000Z</time>
      </trkpt>
      <trkpt lat="47.820332" lon="13.396667">
        <ele>521.294559</ele>
        <time>2024-09-08T08:39:42.000Z</time>
      </trkpt>
      <trkpt lat="47.819967" lon="13.396917">
        <ele>520.580926</ele>
        <time>2024-09-08T08:39:46.000Z</time>
      </trkpt>
      <trkpt lat="47.819682" lon="13.397253">
        <ele>519.961231</ele>
        <time>2024-09-08T08:39:50.000Z</time>
      </trkpt>
      <trkpt lat="47.819544" lon="13.397489">
        <ele>519.570313</ele>
        <time>2024-09-08T08:39:52.000Z</time>
      </trkpt>
      <trkpt lat="47.819364" lon="13.397791">
        <ele>519.109794</ele>
        <time>2024-09-08T08:39:55.000Z</time>
      </trkpt>
      <trkpt lat="47.819122" lon="13.398128">
        <ele>517.956085</ele>
        <time>2024-09-08T08:39:59.000Z</time>
      </trkpt>
      <trkpt lat="47.818875" lon="13.398343">
        <ele>516.731035</ele>
        <time>2024-09-08T08:40:02.000Z</time>
      </trkpt>
      <trkpt lat="47.81788" lon="13.398706">
        <ele>512.428816</ele>
        <time>2024-09-08T08:40:13.000Z</time>
      </trkpt>
      <trkpt lat="47.817476" lon="13.398992">
        <ele>510.111215</ele>
        <time>2024-09-08T08:40:18.000Z</time>
      </trkpt>
      <trkpt lat="47.817141" lon="13.399423">
        <ele>507.130445</ele>
        <time>2024-09-08T08:40:23.000Z</time>
      </trkpt>
      <trkpt lat="47.816764" lon="13.400113">
        <ele>503.219418</ele>
        <time>2024-09-08T08:40:30.000Z</time>
      </trkpt>
      <trkpt lat="47.816675" lon="13.40026">
        <ele>502.333581</ele>
        <time>2024-09-08T08:40:31.000Z</time>
      </trkpt>
      <trkpt lat="47.816567" lon="13.400395">
        <ele>501.406483</ele>
        <time>2024-09-08T08:40:33.000Z</time>
      </trkpt>
      <trkpt lat="47.816469" lon="13.400509">
        <ele>500.581427</ele>
        <time>2024-09-08T08:40:34.000Z</time>
      </trkpt>
      <trkpt lat="47.816313" lon="13.40067">
        <ele>499.311537</ele>
        <time>2024-09-08T08:40:36.000Z</time>
      </trkpt>
      <trkpt lat="47.816124" lon="13.400846">
        <ele>498.09498</ele>
        <time>2024-09-08T08:40:38.000Z</time>
      </trkpt>
      <trkpt lat="47.815729" lon="13.401313">
        <ele>495.310589</ele>
        <time>2024-09-08T08:40:44.000Z</time>
      </trkpt>
      <trkpt lat="47.815648" lon="13.401554">
        <ele>494.255918</ele>
        <time>2024-09-08T08:40:46.000Z</time>
      </trkpt>
      <trkpt lat="47.815583" lon="13.401763">
        <ele>493.403683</ele>
        <time>2024-09-08T08:40:48.000Z</time>
      </trkpt>
      <trkpt lat="47.815542" lon="13.401927">
        <ele>492.788504</ele>
        <time>2024-09-08T08:40:49.000Z</time>
      </trkpt>
      <trkpt lat="47.815511" lon="13.402023">
        <ele>492.38705</ele>
        <time>2024-09-08T08:40:50.000Z</time>
      </trkpt>
      <trkpt lat="47.815441" lon="13.402482">
        <ele>490.626766</ele>
        <time>2024-09-08T08:40:54.000Z</time>
      </trkpt>
      <trkpt lat="47.815392" lon="13.402852">
        <ele>489.449456</ele>
        <time>2024-09-08T08:40:57.000Z</time>
      </trkpt>
      <trkpt lat="47.815375" lon="13.40305">
        <ele>489.188068</ele>
        <time>2024-09-08T08:40:58.000Z</time>
      </trkpt>
      <trkpt lat="47.815329" lon="13.403444">
        <ele>488.635353</ele>
        <time>2024-09-08T08:41:01.000Z</time>
      </trkpt>
      <trkpt lat="47.815311" lon="13.403536">
        <ele>488.49803</ele>
        <time>2024-09-08T08:41:02.000Z</time>
      </trkpt>
      <trkpt lat="47.815266" lon="13.403837">
        <ele>488.083207</ele>
        <time>2024-09-08T08:41:04.000Z</time>
      </trkpt>
      <trkpt lat="47.815212" lon="13.404289">
        <ele>487.458996</ele>
        <time>2024-09-08T08:41:07.000Z</time>
      </trkpt>
      <trkpt lat="47.815197" lon="13.404415">
        <ele>487.291586</ele>
        <time>2024-09-08T08:41:08.000Z</time>
      </trkpt>
      <trkpt lat="47.815128" lon="13.406121">
        <ele>485.81206</ele>
        <time>2024-09-08T08:41:21.000Z</time>
      </trkpt>
      <trkpt lat="47.815088" lon="13.406375">
        <ele>485.766165</ele>
        <time>2024-09-08T08:41:23.000Z</time>
      </trkpt>
      <trkpt lat="47.815035" lon="13.406555">
        <ele>485.732594</ele>
        <time>2024-09-08T08:41:24.000Z</time>
      </trkpt>
      <trkpt lat="47.814783" lon="13.407247">
        <ele>485.589655</ele>
        <time>2024-09-08T08:41:30.000Z</time>
      </trkpt>
      <trkpt lat="47.814192" lon="13.408279">
        <ele>485.608627</ele>
        <time>2024-09-08T08:41:40.000Z</time>
      </trkpt>
      <trkpt lat="47.813906" lon="13.408589">
        <ele>485.729361</ele>
        <time>2024-09-08T08:41:44.000Z</time>
      </trkpt>
      <trkpt lat="47.813752" lon="13.408783">
        <ele>485.803461</ele>
        <time>2024-09-08T08:41:46.000Z</time>
      </trkpt>
      <trkpt lat="47.813541" lon="13.409074">
        <ele>485.900416</ele>
        <time>2024-09-08T08:41:49.000Z</time>
      </trkpt>
      <trkpt lat="47.813279" lon="13.409544">
        <ele>486.045618</ele>
        <time>2024-09-08T08:41:54.000Z</time>
      </trkpt>
      <trkpt lat="47.813212" lon="13.409654">
        <ele>486.07858</ele>
        <time>2024-09-08T08:41:55.000Z</time>
      </trkpt>
      <trkpt lat="47.813079" lon="13.41018">
        <ele>486.23168</ele>
        <time>2024-09-08T08:41:59.000Z</time>
      </trkpt>
      <trkpt lat="47.812998" lon="13.410488">
        <ele>486.318429</ele>
        <time>2024-09-08T08:42:01.000Z</time>
      </trkpt>
      <trkpt lat="47.812958" lon="13.410648">
        <ele>486.367071</ele>
        <time>2024-09-08T08:42:02.000Z</time>
      </trkpt>
      <trkpt lat="47.812918" lon="13.410743">
        <ele>486.398874</ele>
        <time>2024-09-08T08:42:03.000Z</time>
      </trkpt>
      <trkpt lat="47.812768" lon="13.411026">
        <ele>486.49292</ele>
        <time>2024-09-08T08:42:06.000Z</time>
      </trkpt>
      <trkpt lat="47.812435" lon="13.41149">
        <ele>486.671332</ele>
        <time>2024-09-08T08:42:11.000Z</time>
      </trkpt>
      <trkpt lat="47.811874" lon="13.412174">
        <ele>486.403834</ele>
        <time>2024-09-08T08:42:19.000Z</time>
      </trkpt>
      <trkpt lat="47.810922" lon="13.413828">
        <ele>484.894006</ele>
        <time>2024-09-08T08:42:35.000Z</time>
      </trkpt>
      <trkpt lat="47.810619" lon="13.414495">
        <ele>484.537449</ele>
        <time>2024-09-08T08:42:41.000Z</time>
      </trkpt>
      <trkpt lat="47.810582" lon="13.41458">
        <ele>484.48537</ele>
        <time>2024-09-08T08:42:42.000Z</time>
      </trkpt>
      <trkpt lat="47.810229" lon="13.415006">
        <ele>484.187125</ele>
        <time>2024-09-08T08:42:47.000Z</time>
      </trkpt>
      <trkpt lat="47.809731" lon="13.415196">
        <ele>483.844345</ele>
        <time>2024-09-08T08:42:53.000Z</time>
      </trkpt>
      <trkpt lat="47.809628" lon="13.415253">
        <ele>483.767657</ele>
        <time>2024-09-08T08:42:54.000Z</time>
      </trkpt>
      <trkpt lat="47.809597" lon="13.415286">
        <ele>483.743645</ele>
        <time>2024-09-08T08:42:54.000Z</time>
      </trkpt>
      <trkpt lat="47.809541" lon="13.415343">
        <ele>483.766268</ele>
        <time>2024-09-08T08:42:55.000Z</time>
      </trkpt>
      <trkpt lat="47.809415" lon="13.415475">
        <ele>483.867605</ele>
        <time>2024-09-08T08:42:57.000Z</time>
      </trkpt>
      <trkpt lat="47.809021" lon="13.416227">
        <ele>484.322914</ele>
        <time>2024-09-08T08:43:04.000Z</time>
      </trkpt>
      <trkpt lat="47.808025" lon="13.417299">
        <ele>485.165033</ele>
        <time>2024-09-08T08:43:18.000Z</time>
      </trkpt>
      <trkpt lat="47.807629" lon="13.41855">
        <ele>485.760982</ele>
        <time>2024-09-08T08:43:28.000Z</time>
      </trkpt>
      <trkpt lat="47.807356" lon="13.419211">
        <ele>486.100618</ele>
        <time>2024-09-08T08:43:34.000Z</time>
      </trkpt>
      <trkpt lat="47.807018" lon="13.419773">
        <ele>485.946644</ele>
        <time>2024-09-08T08:43:40.000Z</time>
      </trkpt>
      <trkpt lat="47.806688" lon="13.420726">
        <ele>485.599041</ele>
        <time>2024-09-08T08:43:48.000Z</time>
      </trkpt>
      <trkpt lat="47.806291" lon="13.422548">
        <ele>485.096247</ele>
        <time>2024-09-08T08:44:02.000Z</time>
      </trkpt>
      <trkpt lat="47.806187" lon="13.42287">
        <ele>485.025353</ele>
        <time>2024-09-08T08:44:05.000Z</time>
      </trkpt>
      <trkpt lat="47.805976" lon="13.423826">
        <ele>484.82166</ele>
        <time>2024-09-08T08:44:13.000Z</time>
      </trkpt>
      <trkpt lat="47.805769" lon="13.425773">
        <ele>487.144583</ele>
        <time>2024-09-08T08:44:28.000Z</time>
      </trkpt>
      <trkpt lat="47.805755" lon="13.425983">
        <ele>487.459542</ele>
        <time>2024-09-08T08:44:30.000Z</time>
      </trkpt>
      <trkpt lat="47.80576" lon="13.426147">
        <ele>487.695639</ele>
        <time>2024-09-08T08:44:31.000Z</time>
      </trkpt>
      <trkpt lat="47.80585" lon="13.427376">
        <ele>490.414263</ele>
        <time>2024-09-08T08:44:40.000Z</time>
      </trkpt>
      <trkpt lat="47.805973" lon="13.428346">
        <ele>493.401038</ele>
        <time>2024-09-08T08:44:47.000Z</time>
      </trkpt>
      <trkpt lat="47.805975" lon="13.428747">
        <ele>494.596822</ele>
        <time>2024-09-08T08:44:50.000Z</time>
      </trkpt>
      <trkpt lat="47.805967" lon="13.428786">
        <ele>494.762365</ele>
        <time>2024-09-08T08:44:50.000Z</time>
      </trkpt>
      <trkpt lat="47.805944" lon="13.428925">
        <ele>495.209716</ele>
        <time>2024-09-08T08:44:51.000Z</time>
      </trkpt>
      <trkpt lat="47.805924" lon="13.428995">
        <ele>495.432285</ele>
        <time>2024-09-08T08:44:52.000Z</time>
      </trkpt>
      <trkpt lat="47.805849" lon="13.429401">
        <ele>496.687827</ele>
        <time>2024-09-08T08:44:55.000Z</time>
      </trkpt>
      <trkpt lat="47.805814" lon="13.429808">
        <ele>496.887342</ele>
        <time>2024-09-08T08:44:58.000Z</time>
      </trkpt>
      <trkpt lat="47.805818" lon="13.429871">
        <ele>496.883193</ele>
        <time>2024-09-08T08:44:58.000Z</time>
      </trkpt>
      <trkpt lat="47.805822" lon="13.430046">
        <ele>496.871792</ele>
        <time>2024-09-08T08:44:59.000Z</time>
      </trkpt>
      <trkpt lat="47.805833" lon="13.430327">
        <ele>496.85257</ele>
        <time>2024-09-08T08:45:01.000Z</time>
      </trkpt>
      <trkpt lat="47.80587" lon="13.430868">
        <ele>496.815699</ele>
        <time>2024-09-08T08:45:05.000Z</time>
      </trkpt>
      <trkpt lat="47.805848" lon="13.431015">
        <ele>496.805072</ele>
        <time>2024-09-08T08:45:06.000Z</time>
      </trkpt>
      <trkpt lat="47.80584" lon="13.431065">
        <ele>496.802184</ele>
        <time>2024-09-08T08:45:06.000Z</time>
      </trkpt>
      <trkpt lat="47.805813" lon="13.431222">
        <ele>496.790974</ele>
        <time>2024-09-08T08:45:07.000Z</time>
      </trkpt>
      <trkpt lat="47.80576" lon="13.431472">
        <ele>496.772491</ele>
        <time>2024-09-08T08:45:09.000Z</time>
      </trkpt>
      <trkpt lat="47.80575" lon="13.43153">
        <ele>496.768233</ele>
        <time>2024-09-08T08:45:09.000Z</time>
      </trkpt>
      <trkpt lat="47.805704" lon="13.431897">
        <ele>496.7425</ele>
        <time>2024-09-08T08:45:12.000Z</time>
      </trkpt>
      <trkpt lat="47.805682" lon="13.432035">
        <ele>496.733626</ele>
        <time>2024-09-08T08:45:13.000Z</time>
      </trkpt>
      <trkpt lat="47.805696" lon="13.432167">
        <ele>496.574797</ele>
        <time>2024-09-08T08:45:14.000Z</time>
      </trkpt>
      <trkpt lat="47.805783" lon="13.432993">
        <ele>494.248017</ele>
        <time>2024-09-08T08:45:20.000Z</time>
      </trkpt>
      <trkpt lat="47.80578" lon="13.434443">
        <ele>490.257514</ele>
        <time>2024-09-08T08:45:31.000Z</time>
      </trkpt>
      <trkpt lat="47.805762" lon="13.434685">
        <ele>489.55998</ele>
        <time>2024-09-08T08:45:33.000Z</time>
      </trkpt>
      <trkpt lat="47.805747" lon="13.434961">
        <ele>489.141004</ele>
        <time>2024-09-08T08:45:35.000Z</time>
      </trkpt>
      <trkpt lat="47.80576" lon="13.435927">
        <ele>488.275584</ele>
        <time>2024-09-08T08:45:42.000Z</time>
      </trkpt>
      <trkpt lat="47.805688" lon="13.436873">
        <ele>487.414984</ele>
        <time>2024-09-08T08:45:49.000Z</time>
      </trkpt>
      <trkpt lat="47.805784" lon="13.437345">
        <ele>486.975926</ele>
        <time>2024-09-08T08:45:53.000Z</time>
      </trkpt>
      <trkpt lat="47.805882" lon="13.437584">
        <ele>486.894311</ele>
        <time>2024-09-08T08:45:55.000Z</time>
      </trkpt>
      <trkpt lat="47.805948" lon="13.437707">
        <ele>486.89052</ele>
        <time>2024-09-08T08:45:56.000Z</time>
      </trkpt>
      <trkpt lat="47.80604" lon="13.438031">
        <ele>486.881213</ele>
        <time>2024-09-08T08:45:59.000Z</time>
      </trkpt>
      <trkpt lat="47.806074" lon="13.43836">
        <ele>486.872433</ele>
        <time>2024-09-08T08:46:01.000Z</time>
      </trkpt>
      <trkpt lat="47.80594" lon="13.439476">
        <ele>486.84263</ele>
        <time>2024-09-08T08:46:09.000Z</time>
      </trkpt>
      <trkpt lat="47.806049" lon="13.440539">
        <ele>486.530947</ele>
        <time>2024-09-08T08:46:17.000Z</time>
      </trkpt>
      <trkpt lat="47.806063" lon="13.44084">
        <ele>486.365611</ele>
        <time>2024-09-08T08:46:19.000Z</time>
      </trkpt>
      <trkpt lat="47.806071" lon="13.440882">
        <ele>486.345953</ele>
        <time>2024-09-08T08:46:19.000Z</time>
      </trkpt>
      <trkpt lat="47.80609" lon="13.441407">
        <ele>486.052683</ele>
        <time>2024-09-08T08:46:23.000Z</time>
      </trkpt>
      <trkpt lat="47.806057" lon="13.441747">
        <ele>485.872516</ele>
        <time>2024-09-08T08:46:26.000Z</time>
      </trkpt>
      <trkpt lat="47.806046" lon="13.442028">
        <ele>485.713981</ele>
        <time>2024-09-08T08:46:28.000Z</time>
      </trkpt>
      <trkpt lat="47.80603" lon="13.442522">
        <ele>485.450051</ele>
        <time>2024-09-08T08:46:32.000Z</time>
      </trkpt>
      <trkpt lat="47.806004" lon="13.442901">
        <ele>485.262539</ele>
        <time>2024-09-08T08:46:35.000Z</time>
      </trkpt>
      <trkpt lat="47.806012" lon="13.44297">
        <ele>485.230534</ele>
        <time>2024-09-08T08:46:36.000Z</time>
      </trkpt>
      <trkpt lat="47.806019" lon="13.443124">
        <ele>485.160136</ele>
        <time>2024-09-08T08:46:37.000Z</time>
      </trkpt>
      <trkpt lat="47.806033" lon="13.443876">
        <ele>484.818195</ele>
        <time>2024-09-08T08:46:43.000Z</time>
      </trkpt>
      <trkpt lat="47.806053" lon="13.444157">
        <ele>484.688873</ele>
        <time>2024-09-08T08:46:45.000Z</time>
      </trkpt>
      <trkpt lat="47.806145" lon="13.445014">
        <ele>484.297789</ele>
        <time>2024-09-08T08:46:51.000Z</time>
      </trkpt>
      <trkpt lat="47.806167" lon="13.445656">
        <ele>484.192783</ele>
        <time>2024-09-08T08:46:56.000Z</time>
      </trkpt>
      <trkpt lat="47.806117" lon="13.446122">
        <ele>484.249877</ele>
        <time>2024-09-08T08:47:00.000Z</time>
      </trkpt>
      <trkpt lat="47.806081" lon="13.446351">
        <ele>484.276808</ele>
        <time>2024-09-08T08:47:02.000Z</time>
      </trkpt>
      <trkpt lat="47.805896" lon="13.447164">
        <ele>484.379364</ele>
        <time>2024-09-08T08:47:08.000Z</time>
      </trkpt>
      <trkpt lat="47.805795" lon="13.447681">
        <ele>484.442185</ele>
        <time>2024-09-08T08:47:12.000Z</time>
      </trkpt>
      <trkpt lat="47.805772" lon="13.448005">
        <ele>484.461229</ele>
        <time>2024-09-08T08:47:14.000Z</time>
      </trkpt>
      <trkpt lat="47.805731" lon="13.44836">
        <ele>484.415515</ele>
        <time>2024-09-08T08:47:17.000Z</time>
      </trkpt>
      <trkpt lat="47.805712" lon="13.448414">
        <ele>484.409258</ele>
        <time>2024-09-08T08:47:17.000Z</time>
      </trkpt>
      <trkpt lat="47.805683" lon="13.448638">
        <ele>484.379294</ele>
        <time>2024-09-08T08:47:19.000Z</time>
      </trkpt>
      <trkpt lat="47.80553" lon="13.449202">
        <ele>484.30166</ele>
        <time>2024-09-08T08:47:24.000Z</time>
      </trkpt>
      <trkpt lat="47.80544" lon="13.449488">
        <ele>484.262579</ele>
        <time>2024-09-08T08:47:26.000Z</time>
      </trkpt>
      <trkpt lat="47.805121" lon="13.450055">
        <ele>484.167923</ele>
        <time>2024-09-08T08:47:32.000Z</time>
      </trkpt>
      <trkpt lat="47.805029" lon="13.450192">
        <ele>484.144266</ele>
        <time>2024-09-08T08:47:33.000Z</time>
      </trkpt>
      <trkpt lat="47.804942" lon="13.450365">
        <ele>484.157671</ele>
        <time>2024-09-08T08:47:35.000Z</time>
      </trkpt>
      <trkpt lat="47.804859" lon="13.45051">
        <ele>484.194237</ele>
        <time>2024-09-08T08:47:36.000Z</time>
      </trkpt>
      <trkpt lat="47.804683" lon="13.450613">
        <ele>484.250882</ele>
        <time>2024-09-08T08:47:38.000Z</time>
      </trkpt>
      <trkpt lat="47.804528" lon="13.450639">
        <ele>484.295057</ele>
        <time>2024-09-08T08:47:40.000Z</time>
      </trkpt>
      <trkpt lat="47.804462" lon="13.450648">
        <ele>484.318753</ele>
        <time>2024-09-08T08:47:41.000Z</time>
      </trkpt>
      <trkpt lat="47.804419" lon="13.450659">
        <ele>484.328518</ele>
        <time>2024-09-08T08:47:41.000Z</time>
      </trkpt>
      <trkpt lat="47.804359" lon="13.450616">
        <ele>484.350735</ele>
        <time>2024-09-08T08:47:42.000Z</time>
      </trkpt>
      <trkpt lat="47.804266" lon="13.450592">
        <ele>484.374214</ele>
        <time>2024-09-08T08:47:43.000Z</time>
      </trkpt>
      <trkpt lat="47.804185" lon="13.450593">
        <ele>484.400472</ele>
        <time>2024-09-08T08:47:44.000Z</time>
      </trkpt>
      <trkpt lat="47.804069" lon="13.450591">
        <ele>484.431709</ele>
        <time>2024-09-08T08:47:45.000Z</time>
      </trkpt>
      <trkpt lat="47.803729" lon="13.450659">
        <ele>484.533308</ele>
        <time>2024-09-08T08:47:49.000Z</time>
      </trkpt>
      <trkpt lat="47.803659" lon="13.45067">
        <ele>484.555166</ele>
        <time>2024-09-08T08:47:50.000Z</time>
      </trkpt>
      <trkpt lat="47.803578" lon="13.450675">
        <ele>484.578132</ele>
        <time>2024-09-08T08:47:51.000Z</time>
      </trkpt>
      <trkpt lat="47.803557" lon="13.450663">
        <ele>484.584998</ele>
        <time>2024-09-08T08:47:51.000Z</time>
      </trkpt>
      <trkpt lat="47.803482" lon="13.450639">
        <ele>484.607903</ele>
        <time>2024-09-08T08:47:52.000Z</time>
      </trkpt>
      <trkpt lat="47.803419" lon="13.450558">
        <ele>484.633452</ele>
        <time>2024-09-08T08:47:53.000Z</time>
      </trkpt>
      <trkpt lat="47.803353" lon="13.450453">
        <ele>484.660542</ele>
        <time>2024-09-08T08:47:54.000Z</time>
      </trkpt>
      <trkpt lat="47.80332" lon="13.450333">
        <ele>484.765437</ele>
        <time>2024-09-08T08:47:55.000Z</time>
      </trkpt>
      <trkpt lat="47.803294" lon="13.450057">
        <ele>484.991878</ele>
        <time>2024-09-08T08:47:57.000Z</time>
      </trkpt>
      <trkpt lat="47.803253" lon="13.449857">
        <ele>485.169639</ele>
        <time>2024-09-08T08:47:59.000Z</time>
      </trkpt>
      <trkpt lat="47.802934" lon="13.448996">
        <ele>485.986415</ele>
        <time>2024-09-08T08:48:06.000Z</time>
      </trkpt>
      <trkpt lat="47.802853" lon="13.448589">
        <ele>486.335053</ele>
        <time>2024-09-08T08:48:09.000Z</time>
      </trkpt>
      <trkpt lat="47.802815" lon="13.448418">
        <ele>486.474572</ele>
        <time>2024-09-08T08:48:10.000Z</time>
      </trkpt>
      <trkpt lat="47.802756" lon="13.448226">
        <ele>486.65846</ele>
        <time>2024-09-08T08:48:12.000Z</time>
      </trkpt>
      <trkpt lat="47.802725" lon="13.448087">
        <ele>486.780959</ele>
        <time>2024-09-08T08:48:13.000Z</time>
      </trkpt>
      <trkpt lat="47.802631" lon="13.447795">
        <ele>486.942739</ele>
        <time>2024-09-08T08:48:15.000Z</time>
      </trkpt>
      <trkpt lat="47.802544" lon="13.447589">
        <ele>487.018151</ele>
        <time>2024-09-08T08:48:17.000Z</time>
      </trkpt>
      <trkpt lat="47.802216" lon="13.446811">
        <ele>487.308583</ele>
        <time>2024-09-08T08:48:24.000Z</time>
      </trkpt>
      <trkpt lat="47.802111" lon="13.445963">
        <ele>487.579348</ele>
        <time>2024-09-08T08:48:30.000Z</time>
      </trkpt>
      <trkpt lat="47.801905" lon="13.445277">
        <ele>487.604047</ele>
        <time>2024-09-08T08:48:36.000Z</time>
      </trkpt>
      <trkpt lat="47.801903" lon="13.444958">
        <ele>487.492081</ele>
        <time>2024-09-08T08:48:38.000Z</time>
      </trkpt>
      <trkpt lat="47.801967" lon="13.444347">
        <ele>487.266646</ele>
        <time>2024-09-08T08:48:43.000Z</time>
      </trkpt>
      <trkpt lat="47.802032" lon="13.444062">
        <ele>487.162969</ele>
        <time>2024-09-08T08:48:45.000Z</time>
      </trkpt>
      <trkpt lat="47.80221" lon="13.443492">
        <ele>486.934635</ele>
        <time>2024-09-08T08:48:50.000Z</time>
      </trkpt>
      <trkpt lat="47.802289" lon="13.443313">
        <ele>486.85796</ele>
        <time>2024-09-08T08:48:52.000Z</time>
      </trkpt>
      <trkpt lat="47.802346" lon="13.442699">
        <ele>486.755098</ele>
        <time>2024-09-08T08:48:57.000Z</time>
      </trkpt>
      <trkpt lat="47.802259" lon="13.44215">
        <ele>486.755752</ele>
        <time>2024-09-08T08:49:01.000Z</time>
      </trkpt>
      <trkpt lat="47.80187" lon="13.440369">
        <ele>486.85106</ele>
        <time>2024-09-08T08:49:15.000Z</time>
      </trkpt>
      <trkpt lat="47.801451" lon="13.439249">
        <ele>488.283856</ele>
        <time>2024-09-08T08:49:25.000Z</time>
      </trkpt>
      <trkpt lat="47.801357" lon="13.438941">
        <ele>488.673971</ele>
        <time>2024-09-08T08:49:28.000Z</time>
      </trkpt>
      <trkpt lat="47.801083" lon="13.43811">
        <ele>489.702128</ele>
        <time>2024-09-08T08:49:35.000Z</time>
      </trkpt>
      <trkpt lat="47.800996" lon="13.43789">
        <ele>489.982224</ele>
        <time>2024-09-08T08:49:37.000Z</time>
      </trkpt>
      <trkpt lat="47.800719" lon="13.43732">
        <ele>490.801355</ele>
        <time>2024-09-08T08:49:42.000Z</time>
      </trkpt>
      <trkpt lat="47.800671" lon="13.437232">
        <ele>490.937395</ele>
        <time>2024-09-08T08:49:43.000Z</time>
      </trkpt>
      <trkpt lat="47.800591" lon="13.437091">
        <ele>491.123597</ele>
        <time>2024-09-08T08:49:44.000Z</time>
      </trkpt>
      <trkpt lat="47.800588" lon="13.437076">
        <ele>491.145759</ele>
        <time>2024-09-08T08:49:44.000Z</time>
      </trkpt>
      <trkpt lat="47.800473" lon="13.436805">
        <ele>491.508495</ele>
        <time>2024-09-08T08:49:46.000Z</time>
      </trkpt>
      <trkpt lat="47.800318" lon="13.436187">
        <ele>492.270466</ele>
        <time>2024-09-08T08:49:51.000Z</time>
      </trkpt>
      <trkpt lat="47.800101" lon="13.434741">
        <ele>493.163905</ele>
        <time>2024-09-08T08:50:02.000Z</time>
      </trkpt>
      <trkpt lat="47.800092" lon="13.433662">
        <ele>493.532781</ele>
        <time>2024-09-08T08:50:10.000Z</time>
      </trkpt>
      <trkpt lat="47.799914" lon="13.432906">
        <ele>493.734864</ele>
        <time>2024-09-08T08:50:16.000Z</time>
      </trkpt>
      <trkpt lat="47.799888" lon="13.432541">
        <ele>493.732561</ele>
        <time>2024-09-08T08:50:19.000Z</time>
      </trkpt>
      <trkpt lat="47.799909" lon="13.43234">
        <ele>493.731235</ele>
        <time>2024-09-08T08:50:21.000Z</time>
      </trkpt>
      <trkpt lat="47.80007" lon="13.431693">
        <ele>493.726704</ele>
        <time>2024-09-08T08:50:26.000Z</time>
      </trkpt>
      <trkpt lat="47.800188" lon="13.430927">
        <ele>493.721758</ele>
        <time>2024-09-08T08:50:32.000Z</time>
      </trkpt>
      <trkpt lat="47.800284" lon="13.428549">
        <ele>492.08738</ele>
        <time>2024-09-08T08:50:50.000Z</time>
      </trkpt>
      <trkpt lat="47.8003" lon="13.428278">
        <ele>491.860135</ele>
        <time>2024-09-08T08:50:52.000Z</time>
      </trkpt>
      <trkpt lat="47.800361" lon="13.42791">
        <ele>491.555766</ele>
        <time>2024-09-08T08:50:55.000Z</time>
      </trkpt>
      <trkpt lat="47.80039" lon="13.427694">
        <ele>491.351997</ele>
        <time>2024-09-08T08:50:57.000Z</time>
      </trkpt>
      <trkpt lat="47.800586" lon="13.426708">
        <ele>490.444473</ele>
        <time>2024-09-08T08:51:05.000Z</time>
      </trkpt>
      <trkpt lat="47.800642" lon="13.426075">
        <ele>489.883992</ele>
        <time>2024-09-08T08:51:10.000Z</time>
      </trkpt>
      <trkpt lat="47.800624" lon="13.425718">
        <ele>489.566983</ele>
        <time>2024-09-08T08:51:13.000Z</time>
      </trkpt>
      <trkpt lat="47.800585" lon="13.425555">
        <ele>489.420652</ele>
        <time>2024-09-08T08:51:14.000Z</time>
      </trkpt>
      <trkpt lat="47.800517" lon="13.42536">
        <ele>489.221129</ele>
        <time>2024-09-08T08:51:16.000Z</time>
      </trkpt>
      <trkpt lat="47.800358" lon="13.424987">
        <ele>489.861519</ele>
        <time>2024-09-08T08:51:19.000Z</time>
      </trkpt>
      <trkpt lat="47.800199" lon="13.424643">
        <ele>490.77449</ele>
        <time>2024-09-08T08:51:22.000Z</time>
      </trkpt>
      <trkpt lat="47.799806" lon="13.42391">
        <ele>492.754894</ele>
        <time>2024-09-08T08:51:29.000Z</time>
      </trkpt>
      <trkpt lat="47.799628" lon="13.423522">
        <ele>493.775657</ele>
        <time>2024-09-08T08:51:33.000Z</time>
      </trkpt>
      <trkpt lat="47.799494" lon="13.423197">
        <ele>494.571687</ele>
        <time>2024-09-08T08:51:36.000Z</time>
      </trkpt>
      <trkpt lat="47.799366" lon="13.422733">
        <ele>495.952711</ele>
        <time>2024-09-08T08:51:40.000Z</time>
      </trkpt>
      <trkpt lat="47.799385" lon="13.422628">
        <ele>496.309268</ele>
        <time>2024-09-08T08:51:41.000Z</time>
      </trkpt>
      <trkpt lat="47.799262" lon="13.422174">
        <ele>497.793093</ele>
        <time>2024-09-08T08:51:45.000Z</time>
      </trkpt>
      <trkpt lat="47.79926" lon="13.421159">
        <ele>500.872358</ele>
        <time>2024-09-08T08:51:53.000Z</time>
      </trkpt>
      <trkpt lat="47.799214" lon="13.420906">
        <ele>501.689</ele>
        <time>2024-09-08T08:51:55.000Z</time>
      </trkpt>
      <trkpt lat="47.799079" lon="13.420458">
        <ele>503.009489</ele>
        <time>2024-09-08T08:51:59.000Z</time>
      </trkpt>
      <trkpt lat="47.799032" lon="13.420322">
        <ele>503.135372</ele>
        <time>2024-09-08T08:52:00.000Z</time>
      </trkpt>
      <trkpt lat="47.79886" lon="13.419196">
        <ele>504.150751</ele>
        <time>2024-09-08T08:52:09.000Z</time>
      </trkpt>
      <trkpt lat="47.798747" lon="13.418356">
        <ele>504.898329</ele>
        <time>2024-09-08T08:52:15.000Z</time>
      </trkpt>
      <trkpt lat="47.798733" lon="13.417389">
        <ele>505.078207</ele>
        <time>2024-09-08T08:52:22.000Z</time>
      </trkpt>
      <trkpt lat="47.798696" lon="13.417241">
        <ele>505.011501</ele>
        <time>2024-09-08T08:52:23.000Z</time>
      </trkpt>
      <trkpt lat="47.798478" lon="13.417191">
        <ele>504.866871</ele>
        <time>2024-09-08T08:52:25.000Z</time>
      </trkpt>
      <trkpt lat="47.798348" lon="13.416805">
        <ele>504.693206</ele>
        <time>2024-09-08T08:52:28.000Z</time>
      </trkpt>
      <trkpt lat="47.798441" lon="13.416238">
        <ele>504.449401</ele>
        <time>2024-09-08T08:52:32.000Z</time>
      </trkpt>
      <trkpt lat="47.798268" lon="13.415875">
        <ele>504.265322</ele>
        <time>2024-09-08T08:52:35.000Z</time>
      </trkpt>
      <trkpt lat="47.798258" lon="13.415138">
        <ele>503.910424</ele>
        <time>2024-09-08T08:52:41.000Z</time>
      </trkpt>
      <trkpt lat="47.798383" lon="13.414116">
        <ele>503.3865</ele>
        <time>2024-09-08T08:52:49.000Z</time>
      </trkpt>
      <trkpt lat="47.798523" lon="13.413554">
        <ele>503.08309</ele>
        <time>2024-09-08T08:52:53.000Z</time>
      </trkpt>
      <trkpt lat="47.798555" lon="13.41299">
        <ele>502.793235</ele>
        <time>2024-09-08T08:52:57.000Z</time>
      </trkpt>
      <trkpt lat="47.798442" lon="13.41223">
        <ele>502.38387</ele>
        <time>2024-09-08T08:53:03.000Z</time>
      </trkpt>
      <trkpt lat="47.798713" lon="13.410913">
        <ele>501.633769</ele>
        <time>2024-09-08T08:53:13.000Z</time>
      </trkpt>
      <trkpt lat="47.798652" lon="13.410061">
        <ele>500.849977</ele>
        <time>2024-09-08T08:53:19.000Z</time>
      </trkpt>
      <trkpt lat="47.798678" lon="13.408997">
        <ele>499.366032</ele>
        <time>2024-09-08T08:53:27.000Z</time>
      </trkpt>
      <trkpt lat="47.79849" lon="13.408582">
        <ele>498.681193</ele>
        <time>2024-09-08T08:53:31.000Z</time>
      </trkpt>
      <trkpt lat="47.798241" lon="13.407413">
        <ele>496.056494</ele>
        <time>2024-09-08T08:53:40.000Z</time>
      </trkpt>
      <trkpt lat="47.79824" lon="13.407113">
        <ele>495.075195</ele>
        <time>2024-09-08T08:53:42.000Z</time>
      </trkpt>
      <trkpt lat="47.798267" lon="13.406862">
        <ele>494.27607</ele>
        <time>2024-09-08T08:53:44.000Z</time>
      </trkpt>
      <trkpt lat="47.798314" lon="13.406718">
        <ele>493.734202</ele>
        <time>2024-09-08T08:53:45.000Z</time>
      </trkpt>
      <trkpt lat="47.798445" lon="13.406387">
        <ele>492.464582</ele>
        <time>2024-09-08T08:53:48.000Z</time>
      </trkpt>
      <trkpt lat="47.798449" lon="13.406295">
        <ele>492.162498</ele>
        <time>2024-09-08T08:53:49.000Z</time>
      </trkpt>
      <trkpt lat="47.798542" lon="13.406168">
        <ele>491.497399</ele>
        <time>2024-09-08T08:53:50.000Z</time>
      </trkpt>
      <trkpt lat="47.798719" lon="13.406027">
        <ele>490.570925</ele>
        <time>2024-09-08T08:53:52.000Z</time>
      </trkpt>
      <trkpt lat="47.799115" lon="13.405589">
        <ele>488.38748</ele>
        <time>2024-09-08T08:53:57.000Z</time>
      </trkpt>
      <trkpt lat="47.799197" lon="13.405428">
        <ele>488.014649</ele>
        <time>2024-09-08T08:53:59.000Z</time>
      </trkpt>
      <trkpt lat="47.799278" lon="13.405214">
        <ele>487.523266</ele>
        <time>2024-09-08T08:54:01.000Z</time>
      </trkpt>
      <trkpt lat="47.799516" lon="13.402547">
        <ele>483.392158</ele>
        <time>2024-09-08T08:54:21.000Z</time>
      </trkpt>
      <trkpt lat="47.799516" lon="13.402207">
        <ele>483.267752</ele>
        <time>2024-09-08T08:54:24.000Z</time>
      </trkpt>
      <trkpt lat="47.799506" lon="13.402047">
        <ele>483.213041</ele>
        <time>2024-09-08T08:54:25.000Z</time>
      </trkpt>
      <trkpt lat="47.799496" lon="13.401979">
        <ele>483.187423</ele>
        <time>2024-09-08T08:54:26.000Z</time>
      </trkpt>
      <trkpt lat="47.799453" lon="13.401686">
        <ele>483.080659</ele>
        <time>2024-09-08T08:54:28.000Z</time>
      </trkpt>
      <trkpt lat="47.799288" lon="13.400981">
        <ele>482.821593</ele>
        <time>2024-09-08T08:54:34.000Z</time>
      </trkpt>
      <trkpt lat="47.799153" lon="13.400583">
        <ele>482.690803</ele>
        <time>2024-09-08T08:54:37.000Z</time>
      </trkpt>
      <trkpt lat="47.798794" lon="13.399957">
        <ele>482.893373</ele>
        <time>2024-09-08T08:54:43.000Z</time>
      </trkpt>
      <trkpt lat="47.797672" lon="13.398499">
        <ele>483.413871</ele>
        <time>2024-09-08T08:55:00.000Z</time>
      </trkpt>
      <trkpt lat="47.797698" lon="13.398312">
        <ele>483.447398</ele>
        <time>2024-09-08T08:55:01.000Z</time>
      </trkpt>
      <trkpt lat="47.798543" lon="13.396859">
        <ele>483.814259</ele>
        <time>2024-09-08T08:55:15.000Z</time>
      </trkpt>
      <trkpt lat="47.798672" lon="13.396499">
        <ele>483.906452</ele>
        <time>2024-09-08T08:55:18.000Z</time>
      </trkpt>
      <trkpt lat="47.798816" lon="13.395865">
        <ele>484.065031</ele>
        <time>2024-09-08T08:55:23.000Z</time>
      </trkpt>
      <trkpt lat="47.798859" lon="13.395505">
        <ele>484.15431</ele>
        <time>2024-09-08T08:55:26.000Z</time>
      </trkpt>
      <trkpt lat="47.798922" lon="13.394898">
        <ele>484.301744</ele>
        <time>2024-09-08T08:55:31.000Z</time>
      </trkpt>
      <trkpt lat="47.799075" lon="13.394188">
        <ele>484.483065</ele>
        <time>2024-09-08T08:55:37.000Z</time>
      </trkpt>
      <trkpt lat="47.799654" lon="13.392768">
        <ele>485.891927</ele>
        <time>2024-09-08T08:55:49.000Z</time>
      </trkpt>
      <trkpt lat="47.799899" lon="13.392148">
        <ele>486.515275</ele>
        <time>2024-09-08T08:55:54.000Z</time>
      </trkpt>
      <trkpt lat="47.799996" lon="13.391966">
        <ele>486.713639</ele>
        <time>2024-09-08T08:55:56.000Z</time>
      </trkpt>
      <trkpt lat="47.800064" lon="13.391828">
        <ele>487.016824</ele>
        <time>2024-09-08T08:55:57.000Z</time>
      </trkpt>
      <trkpt lat="47.800103" lon="13.39175">
        <ele>487.265474</ele>
        <time>2024-09-08T08:55:58.000Z</time>
      </trkpt>
      <trkpt lat="47.800171" lon="13.391623">
        <ele>487.780802</ele>
        <time>2024-09-08T08:55:59.000Z</time>
      </trkpt>
      <trkpt lat="47.800191" lon="13.391596">
        <ele>487.882359</ele>
        <time>2024-09-08T08:55:59.000Z</time>
      </trkpt>
      <trkpt lat="47.800774" lon="13.390535">
        <ele>492.130544</ele>
        <time>2024-09-08T08:56:09.000Z</time>
      </trkpt>
      <trkpt lat="47.800953" lon="13.389984">
        <ele>493.989795</ele>
        <time>2024-09-08T08:56:14.000Z</time>
      </trkpt>
      <trkpt lat="47.801036" lon="13.389489">
        <ele>495.687448</ele>
        <time>2024-09-08T08:56:18.000Z</time>
      </trkpt>
      <trkpt lat="47.801041" lon="13.389253">
        <ele>496.582252</ele>
        <time>2024-09-08T08:56:20.000Z</time>
      </trkpt>
      <trkpt lat="47.801033" lon="13.389166">
        <ele>496.956152</ele>
        <time>2024-09-08T08:56:21.000Z</time>
      </trkpt>
      <trkpt lat="47.801119" lon="13.388588">
        <ele>499.259529</ele>
        <time>2024-09-08T08:56:25.000Z</time>
      </trkpt>
      <trkpt lat="47.801172" lon="13.388458">
        <ele>499.852795</ele>
        <time>2024-09-08T08:56:26.000Z</time>
      </trkpt>
      <trkpt lat="47.801223" lon="13.388307">
        <ele>500.509947</ele>
        <time>2024-09-08T08:56:27.000Z</time>
      </trkpt>
      <trkpt lat="47.801254" lon="13.388207">
        <ele>500.931224</ele>
        <time>2024-09-08T08:56:28.000Z</time>
      </trkpt>
      <trkpt lat="47.801346" lon="13.388012">
        <ele>501.858235</ele>
        <time>2024-09-08T08:56:30.000Z</time>
      </trkpt>
      <trkpt lat="47.801398" lon="13.387881">
        <ele>502.449888</ele>
        <time>2024-09-08T08:56:31.000Z</time>
      </trkpt>
      <trkpt lat="47.801427" lon="13.387761">
        <ele>502.938201</ele>
        <time>2024-09-08T08:56:32.000Z</time>
      </trkpt>
      <trkpt lat="47.801429" lon="13.387729">
        <ele>503.085557</ele>
        <time>2024-09-08T08:56:32.000Z</time>
      </trkpt>
      <trkpt lat="47.801478" lon="13.387323">
        <ele>504.732041</ele>
        <time>2024-09-08T08:56:35.000Z</time>
      </trkpt>
      <trkpt lat="47.801474" lon="13.38723">
        <ele>505.062298</ele>
        <time>2024-09-08T08:56:36.000Z</time>
      </trkpt>
      <trkpt lat="47.801485" lon="13.386903">
        <ele>505.50396</ele>
        <time>2024-09-08T08:56:38.000Z</time>
      </trkpt>
      <trkpt lat="47.801488" lon="13.386441">
        <ele>505.531875</ele>
        <time>2024-09-08T08:56:41.000Z</time>
      </trkpt>
      <trkpt lat="47.8016" lon="13.385937">
        <ele>505.565404</ele>
        <time>2024-09-08T08:56:45.000Z</time>
      </trkpt>
      <trkpt lat="47.801653" lon="13.385825">
        <ele>505.573107</ele>
        <time>2024-09-08T08:56:46.000Z</time>
      </trkpt>
      <trkpt lat="47.801671" lon="13.385764">
        <ele>505.57797</ele>
        <time>2024-09-08T08:56:46.000Z</time>
      </trkpt>
      <trkpt lat="47.801779" lon="13.385564">
        <ele>505.592832</ele>
        <time>2024-09-08T08:56:48.000Z</time>
      </trkpt>
      <trkpt lat="47.801856" lon="13.385467">
        <ele>505.601773</ele>
        <time>2024-09-08T08:56:49.000Z</time>
      </trkpt>
      <trkpt lat="47.802475" lon="13.384745">
        <ele>505.316822</ele>
        <time>2024-09-08T08:56:58.000Z</time>
      </trkpt>
      <trkpt lat="47.802767" lon="13.384259">
        <ele>504.657317</ele>
        <time>2024-09-08T08:57:03.000Z</time>
      </trkpt>
      <trkpt lat="47.802992" lon="13.383533">
        <ele>503.811932</ele>
        <time>2024-09-08T08:57:09.000Z</time>
      </trkpt>
      <trkpt lat="47.803186" lon="13.383051">
        <ele>503.236336</ele>
        <time>2024-09-08T08:57:13.000Z</time>
      </trkpt>
      <trkpt lat="47.803905" lon="13.382152">
        <ele>503.296737</ele>
        <time>2024-09-08T08:57:23.000Z</time>
      </trkpt>
      <trkpt lat="47.804029" lon="13.381941">
        <ele>503.416354</ele>
        <time>2024-09-08T08:57:25.000Z</time>
      </trkpt>
      <trkpt lat="47.804064" lon="13.381858">
        <ele>503.459169</ele>
        <time>2024-09-08T08:57:26.000Z</time>
      </trkpt>
      <trkpt lat="47.804138" lon="13.381684">
        <ele>503.540295</ele>
        <time>2024-09-08T08:57:28.000Z</time>
      </trkpt>
      <trkpt lat="47.8042" lon="13.381535">
        <ele>503.611875</ele>
        <time>2024-09-08T08:57:29.000Z</time>
      </trkpt>
      <trkpt lat="47.80424" lon="13.381453">
        <ele>503.659796</ele>
        <time>2024-09-08T08:57:30.000Z</time>
      </trkpt>
      <trkpt lat="47.804396" lon="13.38112">
        <ele>503.822085</ele>
        <time>2024-09-08T08:57:33.000Z</time>
      </trkpt>
      <trkpt lat="47.804487" lon="13.380903">
        <ele>503.930764</ele>
        <time>2024-09-08T08:57:35.000Z</time>
      </trkpt>
      <trkpt lat="47.804629" lon="13.380681">
        <ele>503.768504</ele>
        <time>2024-09-08T08:57:37.000Z</time>
      </trkpt>
      <trkpt lat="47.805133" lon="13.379974">
        <ele>502.652251</ele>
        <time>2024-09-08T08:57:45.000Z</time>
      </trkpt>
      <trkpt lat="47.806023" lon="13.379125">
        <ele>501.122362</ele>
        <time>2024-09-08T08:57:57.000Z</time>
      </trkpt>
      <trkpt lat="47.806088" lon="13.379039">
        <ele>501.128381</ele>
        <time>2024-09-08T08:57:58.000Z</time>
      </trkpt>
      <trkpt lat="47.806146" lon="13.378963">
        <ele>501.132583</ele>
        <time>2024-09-08T08:57:59.000Z</time>
      </trkpt>
      <trkpt lat="47.806241" lon="13.378767">
        <ele>501.143796</ele>
        <time>2024-09-08T08:58:01.000Z</time>
      </trkpt>
      <trkpt lat="47.806284" lon="13.378646">
        <ele>501.149304</ele>
        <time>2024-09-08T08:58:02.000Z</time>
      </trkpt>
      <trkpt lat="47.806348" lon="13.378459">
        <ele>501.1585</ele>
        <time>2024-09-08T08:58:04.000Z</time>
      </trkpt>
      <trkpt lat="47.806368" lon="13.378386">
        <ele>501.161629</ele>
        <time>2024-09-08T08:58:05.000Z</time>
      </trkpt>
      <trkpt lat="47.806416" lon="13.378187">
        <ele>501.171064</ele>
        <time>2024-09-08T08:58:07.000Z</time>
      </trkpt>
      <trkpt lat="47.80646" lon="13.378013">
        <ele>501.17851</ele>
        <time>2024-09-08T08:58:08.000Z</time>
      </trkpt>
      <trkpt lat="47.806499" lon="13.377778">
        <ele>501.189038</ele>
        <time>2024-09-08T08:58:10.000Z</time>
      </trkpt>
      <trkpt lat="47.806729" lon="13.377175">
        <ele>501.219271</ele>
        <time>2024-09-08T08:58:15.000Z</time>
      </trkpt>
      <trkpt lat="47.807504" lon="13.375941">
        <ele>502.961035</ele>
        <time>2024-09-08T08:58:28.000Z</time>
      </trkpt>
      <trkpt lat="47.807886" lon="13.375074">
        <ele>504.294435</ele>
        <time>2024-09-08T08:58:36.000Z</time>
      </trkpt>
      <trkpt lat="47.807985" lon="13.374882">
        <ele>504.613585</ele>
        <time>2024-09-08T08:58:38.000Z</time>
      </trkpt>
      <trkpt lat="47.808077" lon="13.374748">
        <ele>504.845362</ele>
        <time>2024-09-08T08:58:39.000Z</time>
      </trkpt>
      <trkpt lat="47.808356" lon="13.37443">
        <ele>505.509561</ele>
        <time>2024-09-08T08:58:43.000Z</time>
      </trkpt>
      <trkpt lat="47.808483" lon="13.37431">
        <ele>505.7851</ele>
        <time>2024-09-08T08:58:45.000Z</time>
      </trkpt>
      <trkpt lat="47.808966" lon="13.373828">
        <ele>506.875278</ele>
        <time>2024-09-08T08:58:51.000Z</time>
      </trkpt>
      <trkpt lat="47.809502" lon="13.373156">
        <ele>508.06244</ele>
        <time>2024-09-08T08:58:59.000Z</time>
      </trkpt>
      <trkpt lat="47.809572" lon="13.373067">
        <ele>508.144378</ele>
        <time>2024-09-08T08:59:00.000Z</time>
      </trkpt>
      <trkpt lat="47.809626" lon="13.372999">
        <ele>508.20508</ele>
        <time>2024-09-08T08:59:01.000Z</time>
      </trkpt>
      <trkpt lat="47.809899" lon="13.372601">
        <ele>508.507813</ele>
        <time>2024-09-08T08:59:05.000Z</time>
      </trkpt>
      <trkpt lat="47.810201" lon="13.372157">
        <ele>508.842342</ele>
        <time>2024-09-08T08:59:10.000Z</time>
      </trkpt>
      <trkpt lat="47.810377" lon="13.371968">
        <ele>509.022798</ele>
        <time>2024-09-08T08:59:12.000Z</time>
      </trkpt>
      <trkpt lat="47.810706" lon="13.37172">
        <ele>509.313461</ele>
        <time>2024-09-08T08:59:16.000Z</time>
      </trkpt>
      <trkpt lat="47.810751" lon="13.371669">
        <ele>509.369987</ele>
        <time>2024-09-08T08:59:17.000Z</time>
      </trkpt>
      <trkpt lat="47.811172" lon="13.371228">
        <ele>507.746185</ele>
        <time>2024-09-08T08:59:23.000Z</time>
      </trkpt>
      <trkpt lat="47.812025" lon="13.37059">
        <ele>504.023747</ele>
        <time>2024-09-08T08:59:34.000Z</time>
      </trkpt>
      <trkpt lat="47.812528" lon="13.369883">
        <ele>501.282926</ele>
        <time>2024-09-08T08:59:42.000Z</time>
      </trkpt>
      <trkpt lat="47.812543" lon="13.369849">
        <ele>501.154961</ele>
        <time>2024-09-08T08:59:42.000Z</time>
      </trkpt>
      <trkpt lat="47.812622" lon="13.369755">
        <ele>500.786442</ele>
        <time>2024-09-08T08:59:43.000Z</time>
      </trkpt>
      <trkpt lat="47.812664" lon="13.369665">
        <ele>500.47816</ele>
        <time>2024-09-08T08:59:44.000Z</time>
      </trkpt>
      <trkpt lat="47.812764" lon="13.369536">
        <ele>499.917432</ele>
        <time>2024-09-08T08:59:45.000Z</time>
      </trkpt>
      <trkpt lat="47.812873" lon="13.369408">
        <ele>499.3882</ele>
        <time>2024-09-08T08:59:47.000Z</time>
      </trkpt>
      <trkpt lat="47.812945" lon="13.369365">
        <ele>499.080286</ele>
        <time>2024-09-08T08:59:48.000Z</time>
      </trkpt>
      <trkpt lat="47.813135" lon="13.369211">
        <ele>498.213966</ele>
        <time>2024-09-08T08:59:50.000Z</time>
      </trkpt>
      <trkpt lat="47.81353" lon="13.368885">
        <ele>496.405563</ele>
        <time>2024-09-08T08:59:55.000Z</time>
      </trkpt>
      <trkpt lat="47.813574" lon="13.368829">
        <ele>496.14174</ele>
        <time>2024-09-08T08:59:56.000Z</time>
      </trkpt>
      <trkpt lat="47.813638" lon="13.368768">
        <ele>495.853617</ele>
        <time>2024-09-08T08:59:57.000Z</time>
      </trkpt>
      <trkpt lat="47.813813" lon="13.368489">
        <ele>495.13981</ele>
        <time>2024-09-08T09:00:00.000Z</time>
      </trkpt>
      <trkpt lat="47.813953" lon="13.368114">
        <ele>495.078958</ele>
        <time>2024-09-08T09:00:03.000Z</time>
      </trkpt>
      <trkpt lat="47.81398" lon="13.367974">
        <ele>495.058924</ele>
        <time>2024-09-08T09:00:04.000Z</time>
      </trkpt>
      <trkpt lat="47.814022" lon="13.367802">
        <ele>495.032357</ele>
        <time>2024-09-08T09:00:05.000Z</time>
      </trkpt>
      <trkpt lat="47.814354" lon="13.366258">
        <ele>494.80931</ele>
        <time>2024-09-08T09:00:17.000Z</time>
      </trkpt>
      <trkpt lat="47.814391" lon="13.366135">
        <ele>494.79001</ele>
        <time>2024-09-08T09:00:18.000Z</time>
      </trkpt>
      <trkpt lat="47.814453" lon="13.365961">
        <ele>494.721181</ele>
        <time>2024-09-08T09:00:19.000Z</time>
      </trkpt>
      <trkpt lat="47.81485" lon="13.365364">
        <ele>494.388231</ele>
        <time>2024-09-08T09:00:25.000Z</time>
      </trkpt>
      <trkpt lat="47.815478" lon="13.364824">
        <ele>493.9665</ele>
        <time>2024-09-08T09:00:33.000Z</time>
      </trkpt>
      <trkpt lat="47.815557" lon="13.364742">
        <ele>493.906489</ele>
        <time>2024-09-08T09:00:34.000Z</time>
      </trkpt>
      <trkpt lat="47.815676" lon="13.364664">
        <ele>493.835978</ele>
        <time>2024-09-08T09:00:35.000Z</time>
      </trkpt>
      <trkpt lat="47.81573" lon="13.364626">
        <ele>493.79685</ele>
        <time>2024-09-08T09:00:36.000Z</time>
      </trkpt>
      <trkpt lat="47.815826" lon="13.364556">
        <ele>493.732457</ele>
        <time>2024-09-08T09:00:37.000Z</time>
      </trkpt>
      <trkpt lat="47.816073" lon="13.364384">
        <ele>493.334274</ele>
        <time>2024-09-08T09:00:40.000Z</time>
      </trkpt>
      <trkpt lat="47.816081" lon="13.364298">
        <ele>493.246484</ele>
        <time>2024-09-08T09:00:41.000Z</time>
      </trkpt>
      <trkpt lat="47.81619" lon="13.364209">
        <ele>493.05922</ele>
        <time>2024-09-08T09:00:42.000Z</time>
      </trkpt>
      <trkpt lat="47.816658" lon="13.363882">
        <ele>492.283352</ele>
        <time>2024-09-08T09:00:48.000Z</time>
      </trkpt>
      <trkpt lat="47.816912" lon="13.363698">
        <ele>491.849752</ele>
        <time>2024-09-08T09:00:51.000Z</time>
      </trkpt>
      <trkpt lat="47.81719" lon="13.363493">
        <ele>491.369814</ele>
        <time>2024-09-08T09:00:54.000Z</time>
      </trkpt>
      <trkpt lat="47.817682" lon="13.363116">
        <ele>490.180104</ele>
        <time>2024-09-08T09:01:00.000Z</time>
      </trkpt>
      <trkpt lat="47.817803" lon="13.363041">
        <ele>489.854638</ele>
        <time>2024-09-08T09:01:01.000Z</time>
      </trkpt>
      <trkpt lat="47.818017" lon="13.362863">
        <ele>489.220323</ele>
        <time>2024-09-08T09:01:04.000Z</time>
      </trkpt>
      <trkpt lat="47.818732" lon="13.362335">
        <ele>487.131194</ele>
        <time>2024-09-08T09:01:13.000Z</time>
      </trkpt>
      <trkpt lat="47.819775" lon="13.36152">
        <ele>484.923132</ele>
        <time>2024-09-08T09:01:26.000Z</time>
      </trkpt>
      <trkpt lat="47.820001" lon="13.361333">
        <ele>484.497343</ele>
        <time>2024-09-08T09:01:29.000Z</time>
      </trkpt>
      <trkpt lat="47.822901" lon="13.359005">
        <ele>483.017567</ele>
        <time>2024-09-08T09:02:06.000Z</time>
      </trkpt>
      <trkpt lat="47.823708" lon="13.358339">
        <ele>482.982355</ele>
        <time>2024-09-08T09:02:16.000Z</time>
      </trkpt>
      <trkpt lat="47.824014" lon="13.35811">
        <ele>482.999366</ele>
        <time>2024-09-08T09:02:20.000Z</time>
      </trkpt>
      <trkpt lat="47.82421" lon="13.357943">
        <ele>483.0145</ele>
        <time>2024-09-08T09:02:23.000Z</time>
      </trkpt>
      <trkpt lat="47.824374" lon="13.357815">
        <ele>483.027603</ele>
        <time>2024-09-08T09:02:25.000Z</time>
      </trkpt>
      <trkpt lat="47.82625" lon="13.356271">
        <ele>483.457952</ele>
        <time>2024-09-08T09:02:49.000Z</time>
      </trkpt>
      <trkpt lat="47.826633" lon="13.355975">
        <ele>483.605413</ele>
        <time>2024-09-08T09:02:54.000Z</time>
      </trkpt>
      <trkpt lat="47.826784" lon="13.355862">
        <ele>483.66404</ele>
        <time>2024-09-08T09:02:56.000Z</time>
      </trkpt>
      <trkpt lat="47.827134" lon="13.355647">
        <ele>483.984159</ele>
        <time>2024-09-08T09:03:00.000Z</time>
      </trkpt>
      <trkpt lat="47.82731" lon="13.355521">
        <ele>484.210323</ele>
        <time>2024-09-08T09:03:02.000Z</time>
      </trkpt>
      <trkpt lat="47.827382" lon="13.355462">
        <ele>484.315316</ele>
        <time>2024-09-08T09:03:03.000Z</time>
      </trkpt>
      <trkpt lat="47.828336" lon="13.35491">
        <ele>485.560859</ele>
        <time>2024-09-08T09:03:14.000Z</time>
      </trkpt>
      <trkpt lat="47.829945" lon="13.354096">
        <ele>488.23879</ele>
        <time>2024-09-08T09:03:33.000Z</time>
      </trkpt>
      <trkpt lat="47.830372" lon="13.353848">
        <ele>488.95002</ele>
        <time>2024-09-08T09:03:38.000Z</time>
      </trkpt>
      <trkpt lat="47.830737" lon="13.353608">
        <ele>489.451475</ele>
        <time>2024-09-08T09:03:42.000Z</time>
      </trkpt>
      <trkpt lat="47.831305" lon="13.353115">
        <ele>490.279137</ele>
        <time>2024-09-08T09:03:49.000Z</time>
      </trkpt>
      <trkpt lat="47.831555" lon="13.352873">
        <ele>490.67205</ele>
        <time>2024-09-08T09:03:52.000Z</time>
      </trkpt>
      <trkpt lat="47.831765" lon="13.352693">
        <ele>490.973338</ele>
        <time>2024-09-08T09:03:55.000Z</time>
      </trkpt>
      <trkpt lat="47.831938" lon="13.352522">
        <ele>491.154685</ele>
        <time>2024-09-08T09:03:57.000Z</time>
      </trkpt>
      <trkpt lat="47.832079" lon="13.352376">
        <ele>491.202151</ele>
        <time>2024-09-08T09:03:59.000Z</time>
      </trkpt>
      <trkpt lat="47.832702" lon="13.351667">
        <ele>491.434662</ele>
        <time>2024-09-08T09:04:08.000Z</time>
      </trkpt>
      <trkpt lat="47.833699" lon="13.350534">
        <ele>492.274864</ele>
        <time>2024-09-08T09:04:22.000Z</time>
      </trkpt>
      <trkpt lat="47.83405" lon="13.350157">
        <ele>492.817883</ele>
        <time>2024-09-08T09:04:27.000Z</time>
      </trkpt>
      <trkpt lat="47.834152" lon="13.350036">
        <ele>492.968097</ele>
        <time>2024-09-08T09:04:28.000Z</time>
      </trkpt>
      <trkpt lat="47.834376" lon="13.349818">
        <ele>493.303825</ele>
        <time>2024-09-08T09:04:31.000Z</time>
      </trkpt>
      <trkpt lat="47.83462" lon="13.349582">
        <ele>493.669519</ele>
        <time>2024-09-08T09:04:34.000Z</time>
      </trkpt>
      <trkpt lat="47.834938" lon="13.349321">
        <ele>494.363522</ele>
        <time>2024-09-08T09:04:38.000Z</time>
      </trkpt>
      <trkpt lat="47.835201" lon="13.349122">
        <ele>495.0694</ele>
        <time>2024-09-08T09:04:41.000Z</time>
      </trkpt>
      <trkpt lat="47.835439" lon="13.348962">
        <ele>495.713949</ele>
        <time>2024-09-08T09:04:44.000Z</time>
      </trkpt>
      <trkpt lat="47.835822" lon="13.348732">
        <ele>496.709007</ele>
        <time>2024-09-08T09:04:49.000Z</time>
      </trkpt>
      <trkpt lat="47.836143" lon="13.348539">
        <ele>497.55823</ele>
        <time>2024-09-08T09:04:53.000Z</time>
      </trkpt>
      <trkpt lat="47.836917" lon="13.348238">
        <ele>498.63521</ele>
        <time>2024-09-08T09:05:02.000Z</time>
      </trkpt>
      <trkpt lat="47.837328" lon="13.348066">
        <ele>498.93113</ele>
        <time>2024-09-08T09:05:07.000Z</time>
      </trkpt>
      <trkpt lat="47.83814" lon="13.347583">
        <ele>499.529201</ele>
        <time>2024-09-08T09:05:17.000Z</time>
      </trkpt>
      <trkpt lat="47.838875" lon="13.346939">
        <ele>498.479389</ele>
        <time>2024-09-08T09:05:26.000Z</time>
      </trkpt>
      <trkpt lat="47.839067" lon="13.346714">
        <ele>498.169093</ele>
        <time>2024-09-08T09:05:29.000Z</time>
      </trkpt>
      <trkpt lat="47.839231" lon="13.346515">
        <ele>497.904379</ele>
        <time>2024-09-08T09:05:31.000Z</time>
      </trkpt>
      <trkpt lat="47.83992" lon="13.345506">
        <ele>496.342835</ele>
        <time>2024-09-08T09:05:42.000Z</time>
      </trkpt>
      <trkpt lat="47.840366" lon="13.34469">
        <ele>494.926497</ele>
        <time>2024-09-08T09:05:50.000Z</time>
      </trkpt>
      <trkpt lat="47.840914" lon="13.34375">
        <ele>493.352269</ele>
        <time>2024-09-08T09:05:59.000Z</time>
      </trkpt>
      <trkpt lat="47.841588" lon="13.342606">
        <ele>491.685127</ele>
        <time>2024-09-08T09:06:10.000Z</time>
      </trkpt>
      <trkpt lat="47.842242" lon="13.341445">
        <ele>490.191575</ele>
        <time>2024-09-08T09:06:21.000Z</time>
      </trkpt>
      <trkpt lat="47.842434" lon="13.341129">
        <ele>489.851941</ele>
        <time>2024-09-08T09:06:24.000Z</time>
      </trkpt>
      <trkpt lat="47.842667" lon="13.341287">
        <ele>489.542067</ele>
        <time>2024-09-08T09:06:27.000Z</time>
      </trkpt>
      <trkpt lat="47.842718" lon="13.3412">
        <ele>489.436753</ele>
        <time>2024-09-08T09:06:28.000Z</time>
      </trkpt>
      <trkpt lat="47.843339" lon="13.340273">
        <ele>488.333494</ele>
        <time>2024-09-08T09:06:38.000Z</time>
      </trkpt>
      <trkpt lat="47.843818" lon="13.339623">
        <ele>487.41812</ele>
        <time>2024-09-08T09:06:45.000Z</time>
      </trkpt>
      <trkpt lat="47.843926" lon="13.339502">
        <ele>487.230129</ele>
        <time>2024-09-08T09:06:47.000Z</time>
      </trkpt>
      <trkpt lat="47.8442" lon="13.339384">
        <ele>486.848841</ele>
        <time>2024-09-08T09:06:50.000Z</time>
      </trkpt>
      <trkpt lat="47.844239" lon="13.339337">
        <ele>486.768189</ele>
        <time>2024-09-08T09:06:51.000Z</time>
      </trkpt>
      <trkpt lat="47.844235" lon="13.339304">
        <ele>486.732569</ele>
        <time>2024-09-08T09:06:51.000Z</time>
      </trkpt>
      <trkpt lat="47.844189" lon="13.339139">
        <ele>486.571762</ele>
        <time>2024-09-08T09:06:52.000Z</time>
      </trkpt>
      <trkpt lat="47.84437" lon="13.339061">
        <ele>486.310427</ele>
        <time>2024-09-08T09:06:54.000Z</time>
      </trkpt>
      <trkpt lat="47.844716" lon="13.338948">
        <ele>485.776412</ele>
        <time>2024-09-08T09:06:58.000Z</time>
      </trkpt>
      <trkpt lat="47.84478" lon="13.338945">
        <ele>485.67042</ele>
        <time>2024-09-08T09:06:59.000Z</time>
      </trkpt>
      <trkpt lat="47.845024" lon="13.338886">
        <ele>485.295747</ele>
        <time>2024-09-08T09:07:02.000Z</time>
      </trkpt>
      <trkpt lat="47.845339" lon="13.338839">
        <ele>484.784177</ele>
        <time>2024-09-08T09:07:06.000Z</time>
      </trkpt>
      <trkpt lat="47.845465" lon="13.338849">
        <ele>484.593523</ele>
        <time>2024-09-08T09:07:07.000Z</time>
      </trkpt>
      <trkpt lat="47.845732" lon="13.338886">
        <ele>484.150233</ele>
        <time>2024-09-08T09:07:10.000Z</time>
      </trkpt>
      <trkpt lat="47.845747" lon="13.338889">
        <ele>484.132634</ele>
        <time>2024-09-08T09:07:10.000Z</time>
      </trkpt>
      <trkpt lat="47.845935" lon="13.338924">
        <ele>483.837442</ele>
        <time>2024-09-08T09:07:12.000Z</time>
      </trkpt>
      <trkpt lat="47.846066" lon="13.338969">
        <ele>483.621831</ele>
        <time>2024-09-08T09:07:13.000Z</time>
      </trkpt>
      <trkpt lat="47.84623" lon="13.339033">
        <ele>483.360892</ele>
        <time>2024-09-08T09:07:15.000Z</time>
      </trkpt>
      <trkpt lat="47.84635" lon="13.339099">
        <ele>483.15922</ele>
        <time>2024-09-08T09:07:16.000Z</time>
      </trkpt>
      <trkpt lat="47.846577" lon="13.33922">
        <ele>483.15434</ele>
        <time>2024-09-08T09:07:19.000Z</time>
      </trkpt>
      <trkpt lat="47.846655" lon="13.339281">
        <ele>483.152263</ele>
        <time>2024-09-08T09:07:20.000Z</time>
      </trkpt>
      <trkpt lat="47.846886" lon="13.339442">
        <ele>483.147139</ele>
        <time>2024-09-08T09:07:23.000Z</time>
      </trkpt>
      <trkpt lat="47.846795" lon="13.339671">
        <ele>483.143242</ele>
        <time>2024-09-08T09:07:25.000Z</time>
      </trkpt>
      <trkpt lat="47.846832" lon="13.339672">
        <ele>483.142386</ele>
        <time>2024-09-08T09:07:25.000Z</time>
      </trkpt>
      <trkpt lat="47.847253" lon="13.339848">
        <ele>483.133383</ele>
        <time>2024-09-08T09:07:30.000Z</time>
      </trkpt>
      <trkpt lat="47.847348" lon="13.339928">
        <ele>483.130942</ele>
        <time>2024-09-08T09:07:31.000Z</time>
      </trkpt>
      <trkpt lat="47.847397" lon="13.339958">
        <ele>483.129783</ele>
        <time>2024-09-08T09:07:32.000Z</time>
      </trkpt>
      <trkpt lat="47.847846" lon="13.340272">
        <ele>483.194586</ele>
        <time>2024-09-08T09:07:38.000Z</time>
      </trkpt>
      <trkpt lat="47.847936" lon="13.34035">
        <ele>483.283435</ele>
        <time>2024-09-08T09:07:39.000Z</time>
      </trkpt>
      <trkpt lat="47.84799" lon="13.340393">
        <ele>483.331695</ele>
        <time>2024-09-08T09:07:40.000Z</time>
      </trkpt>
      <trkpt lat="47.848321" lon="13.340642">
        <ele>483.626344</ele>
        <time>2024-09-08T09:07:44.000Z</time>
      </trkpt>
      <trkpt lat="47.849188" lon="13.341368">
        <ele>484.429768</ele>
        <time>2024-09-08T09:07:55.000Z</time>
      </trkpt>
      <trkpt lat="47.849386" lon="13.341577">
        <ele>484.57816</ele>
        <time>2024-09-08T09:07:58.000Z</time>
      </trkpt>
      <trkpt lat="47.849503" lon="13.341702">
        <ele>484.599658</ele>
        <time>2024-09-08T09:08:00.000Z</time>
      </trkpt>
      <trkpt lat="47.849593" lon="13.341822">
        <ele>484.619446</ele>
        <time>2024-09-08T09:08:01.000Z</time>
      </trkpt>
      <trkpt lat="47.849734" lon="13.342015">
        <ele>484.650492</ele>
        <time>2024-09-08T09:08:03.000Z</time>
      </trkpt>
      <trkpt lat="47.849863" lon="13.34222">
        <ele>484.679204</ele>
        <time>2024-09-08T09:08:05.000Z</time>
      </trkpt>
      <trkpt lat="47.849959" lon="13.342385">
        <ele>484.701711</ele>
        <time>2024-09-08T09:08:07.000Z</time>
      </trkpt>
      <trkpt lat="47.850013" lon="13.34237">
        <ele>484.711626</ele>
        <time>2024-09-08T09:08:08.000Z</time>
      </trkpt>
      <trkpt lat="47.850065" lon="13.342469">
        <ele>484.723788</ele>
        <time>2024-09-08T09:08:09.000Z</time>
      </trkpt>
      <trkpt lat="47.850099" lon="13.342527">
        <ele>484.731227</ele>
        <time>2024-09-08T09:08:10.000Z</time>
      </trkpt>
      <trkpt lat="47.850363" lon="13.343207">
        <ele>484.814221</ele>
        <time>2024-09-08T09:08:16.000Z</time>
      </trkpt>
      <trkpt lat="47.850512" lon="13.343744">
        <ele>484.728833</ele>
        <time>2024-09-08T09:08:20.000Z</time>
      </trkpt>
      <trkpt lat="47.850566" lon="13.343993">
        <ele>484.599383</ele>
        <time>2024-09-08T09:08:22.000Z</time>
      </trkpt>
      <trkpt lat="47.85063" lon="13.344274">
        <ele>484.454945</ele>
        <time>2024-09-08T09:08:24.000Z</time>
      </trkpt>
      <trkpt lat="47.850649" lon="13.344426">
        <ele>484.373543</ele>
        <time>2024-09-08T09:08:25.000Z</time>
      </trkpt>
      <trkpt lat="47.850665" lon="13.344559">
        <ele>484.304342</ele>
        <time>2024-09-08T09:08:26.000Z</time>
      </trkpt>
      <trkpt lat="47.850704" lon="13.344917">
        <ele>484.127744</ele>
        <time>2024-09-08T09:08:29.000Z</time>
      </trkpt>
      <trkpt lat="47.850711" lon="13.344967">
        <ele>484.10238</ele>
        <time>2024-09-08T09:08:29.000Z</time>
      </trkpt>
      <trkpt lat="47.850686" lon="13.345013">
        <ele>484.070824</ele>
        <time>2024-09-08T09:08:29.000Z</time>
      </trkpt>
      <trkpt lat="47.85075" lon="13.34533">
        <ele>483.904954</ele>
        <time>2024-09-08T09:08:31.000Z</time>
      </trkpt>
      <trkpt lat="47.850901" lon="13.34581">
        <ele>483.638662</ele>
        <time>2024-09-08T09:08:35.000Z</time>
      </trkpt>
      <trkpt lat="47.851012" lon="13.346091">
        <ele>483.511604</ele>
        <time>2024-09-08T09:08:37.000Z</time>
      </trkpt>
      <trkpt lat="47.851229" lon="13.346498">
        <ele>483.421567</ele>
        <time>2024-09-08T09:08:41.000Z</time>
      </trkpt>
      <trkpt lat="47.851299" lon="13.346663">
        <ele>483.385689</ele>
        <time>2024-09-08T09:08:42.000Z</time>
      </trkpt>
      <trkpt lat="47.851459" lon="13.347036">
        <ele>483.307674</ele>
        <time>2024-09-08T09:08:45.000Z</time>
      </trkpt>
      <trkpt lat="47.851611" lon="13.347405">
        <ele>483.232577</ele>
        <time>2024-09-08T09:08:48.000Z</time>
      </trkpt>
      <trkpt lat="47.851721" lon="13.347645">
        <ele>483.183131</ele>
        <time>2024-09-08T09:08:50.000Z</time>
      </trkpt>
      <trkpt lat="47.851961" lon="13.348292">
        <ele>483.056627416</ele>
        <time>2024-09-08T09:08:56.000Z</time>
      </trkpt>
      <trkpt lat="47.852167" lon="13.348954">
        <ele>482.931759735</ele>
        <time>2024-09-08T09:09:01.000Z</time>
      </trkpt>
      <trkpt lat="47.852216" lon="13.348907">
        <ele>482.916900033</ele>
        <time>2024-09-08T09:09:02.000Z</time>
      </trkpt>
      <trkpt lat="47.852288" lon="13.349165">
        <ele>482.869085997</ele>
        <time>2024-09-08T09:09:04.000Z</time>
      </trkpt>
      <trkpt lat="47.852529" lon="13.350073">
        <ele>482.701998922</ele>
        <time>2024-09-08T09:09:11.000Z</time>
      </trkpt>
      <trkpt lat="47.852529" lon="13.350142">
        <ele>482.69019184</ele>
        <time>2024-09-08T09:09:12.000Z</time>
      </trkpt>
    </trkseg>
  </trk>
</gpx>

<!--
Performance optimized by W3 Total Cache. Learn more: https://www.boldgrid.com/w3-total-cache/?utm_source=w3tc&utm_medium=footer_comment&utm_campaign=free_plugin

Page Caching using Disk: Enhanced{w3tc_pagecache_reject_reason} 

Served from: www.aquabike.world @ 2026-05-06 21:17:09 by W3 Total Cache
-->